<?xml version="1.0" encoding="UTF-8" standalone="no" ?>
<gpx xmlns="http://www.topografix.com/GPX/1/1" xmlns:xsi="http://www.w3.org/2001/XMLSchema-instance" xsi:schemaLocation="http://www.topografix.com/GPX/1/1 http://www.topografix.com/GPX/1/1/gpx.xsd" version="1.1" creator="VisuGPX - https://www.visugpx.com">
  <metadata>
    <name>Venelles-Grand Collet et Collet Blanc</name>
    <desc><![CDATA[Boucle de 14.5 km, dénivelé 200 m]]></desc>
  </metadata>
  <trk>
    <name><![CDATA[2015-10-29 14:45:00]]></name>
    <trkseg>
      <trkpt lat="43.59684" lon="5.4979">
        <ele>444.9</ele>
        <time>2015-10-29T08:29:32Z</time>
      </trkpt>
      <trkpt lat="43.59683" lon="5.49794">
        <ele>444.93</ele>
        <time>2015-10-29T08:29:34Z</time>
      </trkpt>
      <trkpt lat="43.59684" lon="5.49785">
        <ele>445.16</ele>
        <time>2015-10-29T08:30:05Z</time>
      </trkpt>
      <trkpt lat="43.59682" lon="5.49785">
        <ele>444.41</ele>
        <time>2015-10-29T08:30:37Z</time>
      </trkpt>
      <trkpt lat="43.59679" lon="5.49787">
        <ele>443.93</ele>
        <time>2015-10-29T08:31:06Z</time>
      </trkpt>
      <trkpt lat="43.59693" lon="5.4979">
        <ele>444.05</ele>
        <time>2015-10-29T08:31:25Z</time>
      </trkpt>
      <trkpt lat="43.59705" lon="5.49788">
        <ele>444.57</ele>
        <time>2015-10-29T08:31:42Z</time>
      </trkpt>
      <trkpt lat="43.59711" lon="5.49778">
        <ele>444.92</ele>
        <time>2015-10-29T08:32:02Z</time>
      </trkpt>
      <trkpt lat="43.59714" lon="5.49761">
        <ele>444.15</ele>
        <time>2015-10-29T08:32:19Z</time>
      </trkpt>
      <trkpt lat="43.59725" lon="5.49749">
        <ele>443.87</ele>
        <time>2015-10-29T08:32:29Z</time>
      </trkpt>
      <trkpt lat="43.59742" lon="5.49733">
        <ele>442.68</ele>
        <time>2015-10-29T08:32:45Z</time>
      </trkpt>
      <trkpt lat="43.59753" lon="5.49728">
        <ele>441.27</ele>
        <time>2015-10-29T08:33:01Z</time>
      </trkpt>
      <trkpt lat="43.59753" lon="5.49737">
        <ele>440.89</ele>
        <time>2015-10-29T08:33:17Z</time>
      </trkpt>
      <trkpt lat="43.59753" lon="5.49741">
        <ele>440.93</ele>
        <time>2015-10-29T08:33:21Z</time>
      </trkpt>
      <trkpt lat="43.5975" lon="5.49764">
        <ele>440.76</ele>
        <time>2015-10-29T08:33:37Z</time>
      </trkpt>
      <trkpt lat="43.59748" lon="5.49789">
        <ele>439.93</ele>
        <time>2015-10-29T08:33:55Z</time>
      </trkpt>
      <trkpt lat="43.59746" lon="5.4981">
        <ele>439.23</ele>
        <time>2015-10-29T08:34:10Z</time>
      </trkpt>
      <trkpt lat="43.5974" lon="5.49836">
        <ele>438.73</ele>
        <time>2015-10-29T08:34:26Z</time>
      </trkpt>
      <trkpt lat="43.59738" lon="5.49867">
        <ele>438.42</ele>
        <time>2015-10-29T08:34:47Z</time>
      </trkpt>
      <trkpt lat="43.59737" lon="5.49895">
        <ele>438.24</ele>
        <time>2015-10-29T08:35:04Z</time>
      </trkpt>
      <trkpt lat="43.59738" lon="5.49927">
        <ele>438.17</ele>
        <time>2015-10-29T08:35:23Z</time>
      </trkpt>
      <trkpt lat="43.59738" lon="5.49956">
        <ele>438.1</ele>
        <time>2015-10-29T08:35:41Z</time>
      </trkpt>
      <trkpt lat="43.5974" lon="5.49983">
        <ele>438.7</ele>
        <time>2015-10-29T08:35:59Z</time>
      </trkpt>
      <trkpt lat="43.59743" lon="5.5001">
        <ele>439.74</ele>
        <time>2015-10-29T08:36:16Z</time>
      </trkpt>
      <trkpt lat="43.59747" lon="5.50041">
        <ele>441.07</ele>
        <time>2015-10-29T08:36:35Z</time>
      </trkpt>
      <trkpt lat="43.59755" lon="5.50065">
        <ele>441.78</ele>
        <time>2015-10-29T08:36:52Z</time>
      </trkpt>
      <trkpt lat="43.59758" lon="5.50075">
        <ele>441.86</ele>
        <time>2015-10-29T08:37:08Z</time>
      </trkpt>
      <trkpt lat="43.59765" lon="5.50104">
        <ele>442.25</ele>
        <time>2015-10-29T08:37:27Z</time>
      </trkpt>
      <trkpt lat="43.59772" lon="5.50135">
        <ele>442.08</ele>
        <time>2015-10-29T08:37:46Z</time>
      </trkpt>
      <trkpt lat="43.59782" lon="5.50161">
        <ele>442.13</ele>
        <time>2015-10-29T08:38:04Z</time>
      </trkpt>
      <trkpt lat="43.59795" lon="5.50182">
        <ele>442.32</ele>
        <time>2015-10-29T08:38:20Z</time>
      </trkpt>
      <trkpt lat="43.5981" lon="5.50204">
        <ele>443.76</ele>
        <time>2015-10-29T08:38:39Z</time>
      </trkpt>
      <trkpt lat="43.59822" lon="5.5022">
        <ele>444.35</ele>
        <time>2015-10-29T08:38:55Z</time>
      </trkpt>
      <trkpt lat="43.59838" lon="5.50233">
        <ele>445.08</ele>
        <time>2015-10-29T08:39:12Z</time>
      </trkpt>
      <trkpt lat="43.59853" lon="5.50229">
        <ele>446.78</ele>
        <time>2015-10-29T08:39:29Z</time>
      </trkpt>
      <trkpt lat="43.59864" lon="5.50228">
        <ele>448.47</ele>
        <time>2015-10-29T08:39:48Z</time>
      </trkpt>
      <trkpt lat="43.5987" lon="5.50229">
        <ele>448.33</ele>
        <time>2015-10-29T08:40:14Z</time>
      </trkpt>
      <trkpt lat="43.59881" lon="5.50226">
        <ele>448.79</ele>
        <time>2015-10-29T08:40:25Z</time>
      </trkpt>
      <trkpt lat="43.599" lon="5.50228">
        <ele>448.55</ele>
        <time>2015-10-29T08:40:44Z</time>
      </trkpt>
      <trkpt lat="43.59901" lon="5.50228">
        <ele>448.41</ele>
        <time>2015-10-29T08:40:46Z</time>
      </trkpt>
      <trkpt lat="43.5992" lon="5.5022">
        <ele>447.3</ele>
        <time>2015-10-29T08:41:07Z</time>
      </trkpt>
      <trkpt lat="43.5994" lon="5.50219">
        <ele>447</ele>
        <time>2015-10-29T08:41:26Z</time>
      </trkpt>
      <trkpt lat="43.59957" lon="5.50217">
        <ele>447.9</ele>
        <time>2015-10-29T08:41:44Z</time>
      </trkpt>
      <trkpt lat="43.59965" lon="5.50216">
        <ele>448.64</ele>
        <time>2015-10-29T08:42:04Z</time>
      </trkpt>
      <trkpt lat="43.59973" lon="5.50213">
        <ele>448.44</ele>
        <time>2015-10-29T08:42:20Z</time>
      </trkpt>
      <trkpt lat="43.59978" lon="5.50201">
        <ele>448.12</ele>
        <time>2015-10-29T08:42:31Z</time>
      </trkpt>
      <trkpt lat="43.59992" lon="5.50177">
        <ele>447.9</ele>
        <time>2015-10-29T08:42:52Z</time>
      </trkpt>
      <trkpt lat="43.59996" lon="5.50174">
        <ele>447.81</ele>
        <time>2015-10-29T08:42:57Z</time>
      </trkpt>
      <trkpt lat="43.60015" lon="5.50164">
        <ele>447.77</ele>
        <time>2015-10-29T08:43:14Z</time>
      </trkpt>
      <trkpt lat="43.60029" lon="5.50151">
        <ele>447.7</ele>
        <time>2015-10-29T08:43:30Z</time>
      </trkpt>
      <trkpt lat="43.60046" lon="5.50133">
        <ele>447.17</ele>
        <time>2015-10-29T08:43:48Z</time>
      </trkpt>
      <trkpt lat="43.60055" lon="5.50123">
        <ele>446.31</ele>
        <time>2015-10-29T08:44:00Z</time>
      </trkpt>
      <trkpt lat="43.60059" lon="5.50122">
        <ele>445.73</ele>
        <time>2015-10-29T08:44:04Z</time>
      </trkpt>
      <trkpt lat="43.60074" lon="5.50117">
        <ele>444.16</ele>
        <time>2015-10-29T08:44:19Z</time>
      </trkpt>
      <trkpt lat="43.60096" lon="5.50112">
        <ele>442.89</ele>
        <time>2015-10-29T08:44:37Z</time>
      </trkpt>
      <trkpt lat="43.60111" lon="5.50111">
        <ele>442.21</ele>
        <time>2015-10-29T08:44:55Z</time>
      </trkpt>
      <trkpt lat="43.6013" lon="5.50111">
        <ele>442.41</ele>
        <time>2015-10-29T08:45:14Z</time>
      </trkpt>
      <trkpt lat="43.60149" lon="5.50113">
        <ele>444.62</ele>
        <time>2015-10-29T08:45:35Z</time>
      </trkpt>
      <trkpt lat="43.60156" lon="5.50112">
        <ele>445.58</ele>
        <time>2015-10-29T08:45:43Z</time>
      </trkpt>
      <trkpt lat="43.6017" lon="5.501">
        <ele>445.91</ele>
        <time>2015-10-29T08:45:58Z</time>
      </trkpt>
      <trkpt lat="43.60186" lon="5.50095">
        <ele>445.53</ele>
        <time>2015-10-29T08:46:12Z</time>
      </trkpt>
      <trkpt lat="43.60206" lon="5.50091">
        <ele>445.8</ele>
        <time>2015-10-29T08:46:31Z</time>
      </trkpt>
      <trkpt lat="43.60221" lon="5.50086">
        <ele>446.55</ele>
        <time>2015-10-29T08:46:50Z</time>
      </trkpt>
      <trkpt lat="43.60237" lon="5.50081">
        <ele>447.84</ele>
        <time>2015-10-29T08:47:13Z</time>
      </trkpt>
      <trkpt lat="43.60253" lon="5.50076">
        <ele>448.56</ele>
        <time>2015-10-29T08:47:34Z</time>
      </trkpt>
      <trkpt lat="43.60277" lon="5.50062">
        <ele>450.31</ele>
        <time>2015-10-29T08:47:58Z</time>
      </trkpt>
      <trkpt lat="43.60295" lon="5.50054">
        <ele>451.36</ele>
        <time>2015-10-29T08:48:16Z</time>
      </trkpt>
      <trkpt lat="43.60313" lon="5.50055">
        <ele>452.93</ele>
        <time>2015-10-29T08:48:35Z</time>
      </trkpt>
      <trkpt lat="43.60317" lon="5.5006">
        <ele>452.91</ele>
        <time>2015-10-29T08:48:52Z</time>
      </trkpt>
      <trkpt lat="43.60325" lon="5.5007">
        <ele>451.81</ele>
        <time>2015-10-29T08:49:11Z</time>
      </trkpt>
      <trkpt lat="43.60326" lon="5.50094">
        <ele>451.4</ele>
        <time>2015-10-29T08:49:34Z</time>
      </trkpt>
      <trkpt lat="43.60325" lon="5.50118">
        <ele>451.11</ele>
        <time>2015-10-29T08:49:52Z</time>
      </trkpt>
      <trkpt lat="43.60323" lon="5.50138">
        <ele>449.23</ele>
        <time>2015-10-29T08:50:11Z</time>
      </trkpt>
      <trkpt lat="43.60321" lon="5.50163">
        <ele>446.18</ele>
        <time>2015-10-29T08:50:31Z</time>
      </trkpt>
      <trkpt lat="43.60315" lon="5.50183">
        <ele>443.68</ele>
        <time>2015-10-29T08:50:51Z</time>
      </trkpt>
      <trkpt lat="43.60307" lon="5.50198">
        <ele>440.54</ele>
        <time>2015-10-29T08:51:10Z</time>
      </trkpt>
      <trkpt lat="43.60299" lon="5.50212">
        <ele>437.43</ele>
        <time>2015-10-29T08:51:27Z</time>
      </trkpt>
      <trkpt lat="43.603" lon="5.50244">
        <ele>435.02</ele>
        <time>2015-10-29T08:51:49Z</time>
      </trkpt>
      <trkpt lat="43.60297" lon="5.50259">
        <ele>434.43</ele>
        <time>2015-10-29T08:52:08Z</time>
      </trkpt>
      <trkpt lat="43.60289" lon="5.50279">
        <ele>431.92</ele>
        <time>2015-10-29T08:52:28Z</time>
      </trkpt>
      <trkpt lat="43.60286" lon="5.50293">
        <ele>428.8</ele>
        <time>2015-10-29T08:52:44Z</time>
      </trkpt>
      <trkpt lat="43.60285" lon="5.50306">
        <ele>425.7</ele>
        <time>2015-10-29T08:52:59Z</time>
      </trkpt>
      <trkpt lat="43.60283" lon="5.50317">
        <ele>422.62</ele>
        <time>2015-10-29T08:53:17Z</time>
      </trkpt>
      <trkpt lat="43.60279" lon="5.50321">
        <ele>422.54</ele>
        <time>2015-10-29T08:53:36Z</time>
      </trkpt>
      <trkpt lat="43.6027" lon="5.50319">
        <ele>424.65</ele>
        <time>2015-10-29T08:53:55Z</time>
      </trkpt>
      <trkpt lat="43.60265" lon="5.50319">
        <ele>426.07</ele>
        <time>2015-10-29T08:54:18Z</time>
      </trkpt>
      <trkpt lat="43.60256" lon="5.50326">
        <ele>428.4</ele>
        <time>2015-10-29T08:54:38Z</time>
      </trkpt>
      <trkpt lat="43.60244" lon="5.50327">
        <ele>431.17</ele>
        <time>2015-10-29T08:54:58Z</time>
      </trkpt>
      <trkpt lat="43.60231" lon="5.50327">
        <ele>433.88</ele>
        <time>2015-10-29T08:55:18Z</time>
      </trkpt>
      <trkpt lat="43.60217" lon="5.50318">
        <ele>434.55</ele>
        <time>2015-10-29T08:55:39Z</time>
      </trkpt>
      <trkpt lat="43.602" lon="5.50303">
        <ele>435.27</ele>
        <time>2015-10-29T08:56:01Z</time>
      </trkpt>
      <trkpt lat="43.60187" lon="5.50288">
        <ele>436.41</ele>
        <time>2015-10-29T08:56:19Z</time>
      </trkpt>
      <trkpt lat="43.60178" lon="5.50272">
        <ele>438.01</ele>
        <time>2015-10-29T08:56:38Z</time>
      </trkpt>
      <trkpt lat="43.60166" lon="5.50257">
        <ele>437.92</ele>
        <time>2015-10-29T08:56:55Z</time>
      </trkpt>
      <trkpt lat="43.60157" lon="5.5024">
        <ele>436.95</ele>
        <time>2015-10-29T08:57:14Z</time>
      </trkpt>
      <trkpt lat="43.60143" lon="5.50224">
        <ele>435.81</ele>
        <time>2015-10-29T08:57:33Z</time>
      </trkpt>
      <trkpt lat="43.60135" lon="5.50217">
        <ele>436.5</ele>
        <time>2015-10-29T08:57:48Z</time>
      </trkpt>
      <trkpt lat="43.60122" lon="5.50219">
        <ele>436.62</ele>
        <time>2015-10-29T08:58:04Z</time>
      </trkpt>
      <trkpt lat="43.60113" lon="5.50225">
        <ele>435.52</ele>
        <time>2015-10-29T08:58:15Z</time>
      </trkpt>
      <trkpt lat="43.60096" lon="5.50233">
        <ele>433.48</ele>
        <time>2015-10-29T08:58:31Z</time>
      </trkpt>
      <trkpt lat="43.60082" lon="5.50246">
        <ele>431.13</ele>
        <time>2015-10-29T08:58:46Z</time>
      </trkpt>
      <trkpt lat="43.60069" lon="5.50254">
        <ele>430.07</ele>
        <time>2015-10-29T08:59:00Z</time>
      </trkpt>
      <trkpt lat="43.60065" lon="5.50259">
        <ele>430.02</ele>
        <time>2015-10-29T08:59:07Z</time>
      </trkpt>
      <trkpt lat="43.60042" lon="5.50265">
        <ele>430.48</ele>
        <time>2015-10-29T08:59:25Z</time>
      </trkpt>
      <trkpt lat="43.60019" lon="5.50264">
        <ele>431.62</ele>
        <time>2015-10-29T08:59:45Z</time>
      </trkpt>
      <trkpt lat="43.60006" lon="5.50264">
        <ele>432.52</ele>
        <time>2015-10-29T08:59:59Z</time>
      </trkpt>
      <trkpt lat="43.60002" lon="5.50267">
        <ele>432.67</ele>
        <time>2015-10-29T09:00:03Z</time>
      </trkpt>
      <trkpt lat="43.59989" lon="5.50283">
        <ele>432.07</ele>
        <time>2015-10-29T09:00:21Z</time>
      </trkpt>
      <trkpt lat="43.59979" lon="5.50303">
        <ele>431.43</ele>
        <time>2015-10-29T09:00:38Z</time>
      </trkpt>
      <trkpt lat="43.59978" lon="5.50329">
        <ele>429.75</ele>
        <time>2015-10-29T09:00:56Z</time>
      </trkpt>
      <trkpt lat="43.5997" lon="5.50346">
        <ele>427.68</ele>
        <time>2015-10-29T09:01:12Z</time>
      </trkpt>
      <trkpt lat="43.59967" lon="5.50353">
        <ele>426.78</ele>
        <time>2015-10-29T09:01:27Z</time>
      </trkpt>
      <trkpt lat="43.59964" lon="5.50358">
        <ele>426.45</ele>
        <time>2015-10-29T09:01:32Z</time>
      </trkpt>
      <trkpt lat="43.59959" lon="5.50378">
        <ele>425.13</ele>
        <time>2015-10-29T09:01:49Z</time>
      </trkpt>
      <trkpt lat="43.59958" lon="5.50395">
        <ele>424.79</ele>
        <time>2015-10-29T09:02:10Z</time>
      </trkpt>
      <trkpt lat="43.59954" lon="5.50415">
        <ele>426.17</ele>
        <time>2015-10-29T09:02:28Z</time>
      </trkpt>
      <trkpt lat="43.59947" lon="5.50434">
        <ele>428.46</ele>
        <time>2015-10-29T09:02:48Z</time>
      </trkpt>
      <trkpt lat="43.59942" lon="5.50439">
        <ele>428.94</ele>
        <time>2015-10-29T09:03:00Z</time>
      </trkpt>
      <trkpt lat="43.5994" lon="5.50442">
        <ele>429.26</ele>
        <time>2015-10-29T09:03:14Z</time>
      </trkpt>
      <trkpt lat="43.5994" lon="5.50445">
        <ele>428.38</ele>
        <time>2015-10-29T09:03:49Z</time>
      </trkpt>
      <trkpt lat="43.5994" lon="5.50446">
        <ele>427.55</ele>
        <time>2015-10-29T09:05:18Z</time>
      </trkpt>
      <trkpt lat="43.59941" lon="5.50447">
        <ele>428.24</ele>
        <time>2015-10-29T09:05:48Z</time>
      </trkpt>
      <trkpt lat="43.5994" lon="5.5045">
        <ele>427.92</ele>
        <time>2015-10-29T09:06:12Z</time>
      </trkpt>
      <trkpt lat="43.5994" lon="5.50457">
        <ele>427.73</ele>
        <time>2015-10-29T09:06:30Z</time>
      </trkpt>
      <trkpt lat="43.59938" lon="5.50468">
        <ele>427.39</ele>
        <time>2015-10-29T09:06:45Z</time>
      </trkpt>
      <trkpt lat="43.59933" lon="5.50491">
        <ele>426.57</ele>
        <time>2015-10-29T09:07:06Z</time>
      </trkpt>
      <trkpt lat="43.59929" lon="5.50512">
        <ele>425.17</ele>
        <time>2015-10-29T09:07:24Z</time>
      </trkpt>
      <trkpt lat="43.59918" lon="5.50537">
        <ele>422.09</ele>
        <time>2015-10-29T09:07:45Z</time>
      </trkpt>
      <trkpt lat="43.59903" lon="5.50568">
        <ele>419.56</ele>
        <time>2015-10-29T09:08:13Z</time>
      </trkpt>
      <trkpt lat="43.59895" lon="5.50594">
        <ele>418.22</ele>
        <time>2015-10-29T09:08:34Z</time>
      </trkpt>
      <trkpt lat="43.59885" lon="5.50625">
        <ele>416.23</ele>
        <time>2015-10-29T09:08:58Z</time>
      </trkpt>
      <trkpt lat="43.5988" lon="5.50643">
        <ele>414.73</ele>
        <time>2015-10-29T09:09:14Z</time>
      </trkpt>
      <trkpt lat="43.5987" lon="5.50665">
        <ele>413.83</ele>
        <time>2015-10-29T09:09:34Z</time>
      </trkpt>
      <trkpt lat="43.59867" lon="5.50681">
        <ele>412.93</ele>
        <time>2015-10-29T09:09:50Z</time>
      </trkpt>
      <trkpt lat="43.59859" lon="5.50718">
        <ele>411.59</ele>
        <time>2015-10-29T09:10:16Z</time>
      </trkpt>
      <trkpt lat="43.59862" lon="5.50755">
        <ele>410.41</ele>
        <time>2015-10-29T09:10:42Z</time>
      </trkpt>
      <trkpt lat="43.59867" lon="5.50789">
        <ele>408.78</ele>
        <time>2015-10-29T09:11:06Z</time>
      </trkpt>
      <trkpt lat="43.59872" lon="5.50819">
        <ele>408.45</ele>
        <time>2015-10-29T09:11:28Z</time>
      </trkpt>
      <trkpt lat="43.59874" lon="5.50829">
        <ele>408.71</ele>
        <time>2015-10-29T09:11:48Z</time>
      </trkpt>
      <trkpt lat="43.59873" lon="5.5083">
        <ele>408.3</ele>
        <time>2015-10-29T09:12:08Z</time>
      </trkpt>
      <trkpt lat="43.59877" lon="5.50836">
        <ele>408.46</ele>
        <time>2015-10-29T09:12:36Z</time>
      </trkpt>
      <trkpt lat="43.59885" lon="5.50844">
        <ele>408.19</ele>
        <time>2015-10-29T09:12:47Z</time>
      </trkpt>
      <trkpt lat="43.59904" lon="5.50858">
        <ele>406.24</ele>
        <time>2015-10-29T09:13:08Z</time>
      </trkpt>
      <trkpt lat="43.59927" lon="5.50875">
        <ele>404.98</ele>
        <time>2015-10-29T09:13:33Z</time>
      </trkpt>
      <trkpt lat="43.59943" lon="5.50888">
        <ele>405.39</ele>
        <time>2015-10-29T09:13:52Z</time>
      </trkpt>
      <trkpt lat="43.59961" lon="5.50902">
        <ele>406.16</ele>
        <time>2015-10-29T09:14:11Z</time>
      </trkpt>
      <trkpt lat="43.59984" lon="5.50913">
        <ele>406.44</ele>
        <time>2015-10-29T09:14:34Z</time>
      </trkpt>
      <trkpt lat="43.60003" lon="5.50918">
        <ele>407.13</ele>
        <time>2015-10-29T09:14:53Z</time>
      </trkpt>
      <trkpt lat="43.60015" lon="5.50925">
        <ele>407.67</ele>
        <time>2015-10-29T09:15:07Z</time>
      </trkpt>
      <trkpt lat="43.60026" lon="5.50935">
        <ele>408.1</ele>
        <time>2015-10-29T09:15:21Z</time>
      </trkpt>
      <trkpt lat="43.60042" lon="5.50957">
        <ele>407.86</ele>
        <time>2015-10-29T09:15:40Z</time>
      </trkpt>
      <trkpt lat="43.60058" lon="5.50971">
        <ele>406.58</ele>
        <time>2015-10-29T09:15:59Z</time>
      </trkpt>
      <trkpt lat="43.6006" lon="5.50972">
        <ele>406.29</ele>
        <time>2015-10-29T09:16:02Z</time>
      </trkpt>
      <trkpt lat="43.60078" lon="5.50973">
        <ele>404.63</ele>
        <time>2015-10-29T09:16:20Z</time>
      </trkpt>
      <trkpt lat="43.60095" lon="5.50969">
        <ele>401.38</ele>
        <time>2015-10-29T09:16:41Z</time>
      </trkpt>
      <trkpt lat="43.6011" lon="5.50965">
        <ele>398.65</ele>
        <time>2015-10-29T09:16:59Z</time>
      </trkpt>
      <trkpt lat="43.60125" lon="5.50959">
        <ele>396.18</ele>
        <time>2015-10-29T09:17:17Z</time>
      </trkpt>
      <trkpt lat="43.6014" lon="5.50943">
        <ele>393.42</ele>
        <time>2015-10-29T09:17:37Z</time>
      </trkpt>
      <trkpt lat="43.60155" lon="5.50927">
        <ele>390.41</ele>
        <time>2015-10-29T09:17:53Z</time>
      </trkpt>
      <trkpt lat="43.60171" lon="5.50921">
        <ele>387.38</ele>
        <time>2015-10-29T09:18:10Z</time>
      </trkpt>
      <trkpt lat="43.60187" lon="5.50917">
        <ele>384.62</ele>
        <time>2015-10-29T09:18:27Z</time>
      </trkpt>
      <trkpt lat="43.60195" lon="5.50909">
        <ele>382.7</ele>
        <time>2015-10-29T09:18:39Z</time>
      </trkpt>
      <trkpt lat="43.60204" lon="5.50898">
        <ele>380.6</ele>
        <time>2015-10-29T09:18:51Z</time>
      </trkpt>
      <trkpt lat="43.60226" lon="5.5089">
        <ele>377.8</ele>
        <time>2015-10-29T09:19:13Z</time>
      </trkpt>
      <trkpt lat="43.60248" lon="5.50899">
        <ele>375.98</ele>
        <time>2015-10-29T09:19:34Z</time>
      </trkpt>
      <trkpt lat="43.60266" lon="5.50906">
        <ele>375.08</ele>
        <time>2015-10-29T09:19:51Z</time>
      </trkpt>
      <trkpt lat="43.60282" lon="5.50915">
        <ele>374.08</ele>
        <time>2015-10-29T09:20:06Z</time>
      </trkpt>
      <trkpt lat="43.60303" lon="5.50921">
        <ele>371.94</ele>
        <time>2015-10-29T09:20:25Z</time>
      </trkpt>
      <trkpt lat="43.60319" lon="5.50929">
        <ele>371.66</ele>
        <time>2015-10-29T09:20:41Z</time>
      </trkpt>
      <trkpt lat="43.60336" lon="5.50938">
        <ele>370.52</ele>
        <time>2015-10-29T09:20:58Z</time>
      </trkpt>
      <trkpt lat="43.6035" lon="5.50944">
        <ele>369.71</ele>
        <time>2015-10-29T09:21:12Z</time>
      </trkpt>
      <trkpt lat="43.60369" lon="5.50954">
        <ele>368.38</ele>
        <time>2015-10-29T09:21:31Z</time>
      </trkpt>
      <trkpt lat="43.60392" lon="5.50955">
        <ele>367.09</ele>
        <time>2015-10-29T09:21:52Z</time>
      </trkpt>
      <trkpt lat="43.60414" lon="5.50946">
        <ele>366.16</ele>
        <time>2015-10-29T09:22:13Z</time>
      </trkpt>
      <trkpt lat="43.60427" lon="5.50951">
        <ele>365.68</ele>
        <time>2015-10-29T09:22:31Z</time>
      </trkpt>
      <trkpt lat="43.60428" lon="5.50951">
        <ele>365.64</ele>
        <time>2015-10-29T09:22:32Z</time>
      </trkpt>
      <trkpt lat="43.60431" lon="5.50953">
        <ele>365.53</ele>
        <time>2015-10-29T09:22:35Z</time>
      </trkpt>
      <trkpt lat="43.60451" lon="5.50957">
        <ele>364.83</ele>
        <time>2015-10-29T09:22:55Z</time>
      </trkpt>
      <trkpt lat="43.60473" lon="5.50957">
        <ele>363.39</ele>
        <time>2015-10-29T09:23:16Z</time>
      </trkpt>
      <trkpt lat="43.60495" lon="5.50959">
        <ele>361.43</ele>
        <time>2015-10-29T09:23:36Z</time>
      </trkpt>
      <trkpt lat="43.60516" lon="5.50963">
        <ele>360.12</ele>
        <time>2015-10-29T09:23:56Z</time>
      </trkpt>
      <trkpt lat="43.60541" lon="5.50967">
        <ele>358.89</ele>
        <time>2015-10-29T09:24:19Z</time>
      </trkpt>
      <trkpt lat="43.60545" lon="5.50977">
        <ele>358.23</ele>
        <time>2015-10-29T09:24:35Z</time>
      </trkpt>
      <trkpt lat="43.60541" lon="5.50988">
        <ele>358.64</ele>
        <time>2015-10-29T09:24:45Z</time>
      </trkpt>
      <trkpt lat="43.60533" lon="5.50998">
        <ele>359.8</ele>
        <time>2015-10-29T09:25:05Z</time>
      </trkpt>
      <trkpt lat="43.60525" lon="5.51011">
        <ele>360.51</ele>
        <time>2015-10-29T09:25:24Z</time>
      </trkpt>
      <trkpt lat="43.60512" lon="5.51034">
        <ele>361.64</ele>
        <time>2015-10-29T09:25:46Z</time>
      </trkpt>
      <trkpt lat="43.60499" lon="5.51061">
        <ele>362.91</ele>
        <time>2015-10-29T09:26:08Z</time>
      </trkpt>
      <trkpt lat="43.60486" lon="5.51086">
        <ele>364.66</ele>
        <time>2015-10-29T09:26:30Z</time>
      </trkpt>
      <trkpt lat="43.60475" lon="5.51106">
        <ele>365.73</ele>
        <time>2015-10-29T09:26:49Z</time>
      </trkpt>
      <trkpt lat="43.6046" lon="5.51126">
        <ele>366.77</ele>
        <time>2015-10-29T09:27:10Z</time>
      </trkpt>
      <trkpt lat="43.60442" lon="5.51151">
        <ele>365.62</ele>
        <time>2015-10-29T09:27:33Z</time>
      </trkpt>
      <trkpt lat="43.60422" lon="5.5117">
        <ele>365.11</ele>
        <time>2015-10-29T09:27:55Z</time>
      </trkpt>
      <trkpt lat="43.60403" lon="5.51186">
        <ele>363.43</ele>
        <time>2015-10-29T09:28:15Z</time>
      </trkpt>
      <trkpt lat="43.60383" lon="5.51205">
        <ele>361.06</ele>
        <time>2015-10-29T09:28:37Z</time>
      </trkpt>
      <trkpt lat="43.60366" lon="5.51221">
        <ele>357.98</ele>
        <time>2015-10-29T09:28:58Z</time>
      </trkpt>
      <trkpt lat="43.60352" lon="5.51244">
        <ele>355.79</ele>
        <time>2015-10-29T09:29:18Z</time>
      </trkpt>
      <trkpt lat="43.60338" lon="5.51266">
        <ele>354.2</ele>
        <time>2015-10-29T09:29:39Z</time>
      </trkpt>
      <trkpt lat="43.60331" lon="5.51275">
        <ele>353.49</ele>
        <time>2015-10-29T09:29:47Z</time>
      </trkpt>
      <trkpt lat="43.60311" lon="5.51297">
        <ele>351.11</ele>
        <time>2015-10-29T09:30:12Z</time>
      </trkpt>
      <trkpt lat="43.60292" lon="5.51319">
        <ele>348.59</ele>
        <time>2015-10-29T09:30:35Z</time>
      </trkpt>
      <trkpt lat="43.6027" lon="5.51331">
        <ele>346.27</ele>
        <time>2015-10-29T09:30:57Z</time>
      </trkpt>
      <trkpt lat="43.60258" lon="5.51337">
        <ele>344.85</ele>
        <time>2015-10-29T09:31:10Z</time>
      </trkpt>
      <trkpt lat="43.60256" lon="5.51341">
        <ele>344.45</ele>
        <time>2015-10-29T09:31:14Z</time>
      </trkpt>
      <trkpt lat="43.60238" lon="5.51353">
        <ele>342.45</ele>
        <time>2015-10-29T09:31:33Z</time>
      </trkpt>
      <trkpt lat="43.60228" lon="5.5136">
        <ele>339.45</ele>
        <time>2015-10-29T09:31:48Z</time>
      </trkpt>
      <trkpt lat="43.60211" lon="5.51363">
        <ele>336.35</ele>
        <time>2015-10-29T09:32:05Z</time>
      </trkpt>
      <trkpt lat="43.60197" lon="5.51366">
        <ele>333.3</ele>
        <time>2015-10-29T09:32:22Z</time>
      </trkpt>
      <trkpt lat="43.6018" lon="5.51369">
        <ele>331.15</ele>
        <time>2015-10-29T09:32:39Z</time>
      </trkpt>
      <trkpt lat="43.60162" lon="5.5138">
        <ele>328.24</ele>
        <time>2015-10-29T09:32:56Z</time>
      </trkpt>
      <trkpt lat="43.60149" lon="5.51398">
        <ele>326.68</ele>
        <time>2015-10-29T09:33:14Z</time>
      </trkpt>
      <trkpt lat="43.60132" lon="5.51418">
        <ele>323.92</ele>
        <time>2015-10-29T09:33:36Z</time>
      </trkpt>
      <trkpt lat="43.60126" lon="5.51425">
        <ele>322.26</ele>
        <time>2015-10-29T09:33:53Z</time>
      </trkpt>
      <trkpt lat="43.60125" lon="5.51425">
        <ele>322.17</ele>
        <time>2015-10-29T09:33:55Z</time>
      </trkpt>
      <trkpt lat="43.60123" lon="5.51425">
        <ele>321.42</ele>
        <time>2015-10-29T09:34:09Z</time>
      </trkpt>
      <trkpt lat="43.60123" lon="5.5143">
        <ele>321.06</ele>
        <time>2015-10-29T09:35:07Z</time>
      </trkpt>
      <trkpt lat="43.60124" lon="5.51427">
        <ele>321.24</ele>
        <time>2015-10-29T09:35:44Z</time>
      </trkpt>
      <trkpt lat="43.60121" lon="5.5143">
        <ele>321.66</ele>
        <time>2015-10-29T09:35:54Z</time>
      </trkpt>
      <trkpt lat="43.60099" lon="5.51446">
        <ele>320.38</ele>
        <time>2015-10-29T09:36:17Z</time>
      </trkpt>
      <trkpt lat="43.60095" lon="5.5145">
        <ele>320.03</ele>
        <time>2015-10-29T09:36:22Z</time>
      </trkpt>
      <trkpt lat="43.60094" lon="5.51452">
        <ele>319.77</ele>
        <time>2015-10-29T09:36:24Z</time>
      </trkpt>
      <trkpt lat="43.60084" lon="5.51462">
        <ele>318.63</ele>
        <time>2015-10-29T09:36:35Z</time>
      </trkpt>
      <trkpt lat="43.60081" lon="5.51467">
        <ele>318.02</ele>
        <time>2015-10-29T09:36:40Z</time>
      </trkpt>
      <trkpt lat="43.60065" lon="5.51486">
        <ele>315.81</ele>
        <time>2015-10-29T09:37:02Z</time>
      </trkpt>
      <trkpt lat="43.60052" lon="5.51507">
        <ele>313.44</ele>
        <time>2015-10-29T09:37:22Z</time>
      </trkpt>
      <trkpt lat="43.60037" lon="5.51537">
        <ele>311.01</ele>
        <time>2015-10-29T09:37:44Z</time>
      </trkpt>
      <trkpt lat="43.60024" lon="5.51561">
        <ele>308.54</ele>
        <time>2015-10-29T09:38:05Z</time>
      </trkpt>
      <trkpt lat="43.60003" lon="5.51581">
        <ele>307.54</ele>
        <time>2015-10-29T09:38:26Z</time>
      </trkpt>
      <trkpt lat="43.59984" lon="5.51602">
        <ele>308.42</ele>
        <time>2015-10-29T09:38:47Z</time>
      </trkpt>
      <trkpt lat="43.5996" lon="5.51623">
        <ele>309.58</ele>
        <time>2015-10-29T09:39:10Z</time>
      </trkpt>
      <trkpt lat="43.59959" lon="5.51624">
        <ele>309.62</ele>
        <time>2015-10-29T09:39:11Z</time>
      </trkpt>
      <trkpt lat="43.59936" lon="5.51641">
        <ele>310.48</ele>
        <time>2015-10-29T09:39:33Z</time>
      </trkpt>
      <trkpt lat="43.59913" lon="5.5166">
        <ele>311.1</ele>
        <time>2015-10-29T09:39:56Z</time>
      </trkpt>
      <trkpt lat="43.59893" lon="5.51683">
        <ele>311.01</ele>
        <time>2015-10-29T09:40:19Z</time>
      </trkpt>
      <trkpt lat="43.59894" lon="5.51689">
        <ele>310.54</ele>
        <time>2015-10-29T09:40:24Z</time>
      </trkpt>
      <trkpt lat="43.59898" lon="5.51697">
        <ele>309.72</ele>
        <time>2015-10-29T09:40:32Z</time>
      </trkpt>
      <trkpt lat="43.59916" lon="5.51709">
        <ele>307.39</ele>
        <time>2015-10-29T09:40:51Z</time>
      </trkpt>
      <trkpt lat="43.59919" lon="5.51718">
        <ele>306.97</ele>
        <time>2015-10-29T09:40:58Z</time>
      </trkpt>
      <trkpt lat="43.59926" lon="5.5174">
        <ele>306.49</ele>
        <time>2015-10-29T09:41:13Z</time>
      </trkpt>
      <trkpt lat="43.59935" lon="5.51774">
        <ele>306.27</ele>
        <time>2015-10-29T09:41:37Z</time>
      </trkpt>
      <trkpt lat="43.59947" lon="5.51802">
        <ele>305.8</ele>
        <time>2015-10-29T09:41:59Z</time>
      </trkpt>
      <trkpt lat="43.5995" lon="5.51804">
        <ele>305.76</ele>
        <time>2015-10-29T09:42:03Z</time>
      </trkpt>
      <trkpt lat="43.59956" lon="5.51801">
        <ele>305.57</ele>
        <time>2015-10-29T09:42:10Z</time>
      </trkpt>
      <trkpt lat="43.59972" lon="5.51778">
        <ele>304.88</ele>
        <time>2015-10-29T09:42:34Z</time>
      </trkpt>
      <trkpt lat="43.59983" lon="5.51757">
        <ele>304.97</ele>
        <time>2015-10-29T09:42:52Z</time>
      </trkpt>
      <trkpt lat="43.60003" lon="5.5173">
        <ele>303.95</ele>
        <time>2015-10-29T09:43:16Z</time>
      </trkpt>
      <trkpt lat="43.60023" lon="5.51722">
        <ele>303.13</ele>
        <time>2015-10-29T09:43:36Z</time>
      </trkpt>
      <trkpt lat="43.60054" lon="5.51715">
        <ele>302.78</ele>
        <time>2015-10-29T09:44:01Z</time>
      </trkpt>
      <trkpt lat="43.60078" lon="5.51708">
        <ele>302.37</ele>
        <time>2015-10-29T09:44:23Z</time>
      </trkpt>
      <trkpt lat="43.60098" lon="5.51699">
        <ele>302.23</ele>
        <time>2015-10-29T09:44:42Z</time>
      </trkpt>
      <trkpt lat="43.60121" lon="5.51686">
        <ele>301.89</ele>
        <time>2015-10-29T09:45:02Z</time>
      </trkpt>
      <trkpt lat="43.60141" lon="5.51673">
        <ele>301.64</ele>
        <time>2015-10-29T09:45:22Z</time>
      </trkpt>
      <trkpt lat="43.60164" lon="5.51658">
        <ele>301.32</ele>
        <time>2015-10-29T09:45:43Z</time>
      </trkpt>
      <trkpt lat="43.60191" lon="5.51643">
        <ele>300.99</ele>
        <time>2015-10-29T09:46:07Z</time>
      </trkpt>
      <trkpt lat="43.60215" lon="5.51636">
        <ele>300.42</ele>
        <time>2015-10-29T09:46:27Z</time>
      </trkpt>
      <trkpt lat="43.60217" lon="5.51636">
        <ele>300.27</ele>
        <time>2015-10-29T09:46:29Z</time>
      </trkpt>
      <trkpt lat="43.60236" lon="5.51637">
        <ele>299.71</ele>
        <time>2015-10-29T09:46:48Z</time>
      </trkpt>
      <trkpt lat="43.60246" lon="5.51635">
        <ele>299.4</ele>
        <time>2015-10-29T09:47:07Z</time>
      </trkpt>
      <trkpt lat="43.6025" lon="5.51633">
        <ele>299.45</ele>
        <time>2015-10-29T09:47:22Z</time>
      </trkpt>
      <trkpt lat="43.60249" lon="5.51644">
        <ele>297.75</ele>
        <time>2015-10-29T09:47:43Z</time>
      </trkpt>
      <trkpt lat="43.60246" lon="5.51662">
        <ele>297.92</ele>
        <time>2015-10-29T09:48:03Z</time>
      </trkpt>
      <trkpt lat="43.6025" lon="5.51673">
        <ele>300.27</ele>
        <time>2015-10-29T09:48:19Z</time>
      </trkpt>
      <trkpt lat="43.60255" lon="5.5169">
        <ele>301.81</ele>
        <time>2015-10-29T09:48:38Z</time>
      </trkpt>
      <trkpt lat="43.60264" lon="5.51709">
        <ele>302.48</ele>
        <time>2015-10-29T09:48:58Z</time>
      </trkpt>
      <trkpt lat="43.6027" lon="5.51728">
        <ele>303.65</ele>
        <time>2015-10-29T09:49:19Z</time>
      </trkpt>
      <trkpt lat="43.60274" lon="5.51744">
        <ele>304.71</ele>
        <time>2015-10-29T09:49:39Z</time>
      </trkpt>
      <trkpt lat="43.60279" lon="5.51753">
        <ele>305.18</ele>
        <time>2015-10-29T09:49:49Z</time>
      </trkpt>
      <trkpt lat="43.60294" lon="5.51768">
        <ele>305.7</ele>
        <time>2015-10-29T09:50:09Z</time>
      </trkpt>
      <trkpt lat="43.60307" lon="5.51783">
        <ele>306.11</ele>
        <time>2015-10-29T09:50:28Z</time>
      </trkpt>
      <trkpt lat="43.60318" lon="5.51799">
        <ele>307.24</ele>
        <time>2015-10-29T09:50:49Z</time>
      </trkpt>
      <trkpt lat="43.60326" lon="5.51809">
        <ele>308.46</ele>
        <time>2015-10-29T09:51:04Z</time>
      </trkpt>
      <trkpt lat="43.60337" lon="5.51819">
        <ele>307.03</ele>
        <time>2015-10-29T09:51:22Z</time>
      </trkpt>
      <trkpt lat="43.6035" lon="5.51827">
        <ele>304.68</ele>
        <time>2015-10-29T09:51:41Z</time>
      </trkpt>
      <trkpt lat="43.60362" lon="5.5184">
        <ele>304.46</ele>
        <time>2015-10-29T09:52:01Z</time>
      </trkpt>
      <trkpt lat="43.60368" lon="5.51843">
        <ele>304.8</ele>
        <time>2015-10-29T09:52:09Z</time>
      </trkpt>
      <trkpt lat="43.60388" lon="5.51847">
        <ele>304.24</ele>
        <time>2015-10-29T09:52:29Z</time>
      </trkpt>
      <trkpt lat="43.60393" lon="5.51846">
        <ele>303.57</ele>
        <time>2015-10-29T09:52:36Z</time>
      </trkpt>
      <trkpt lat="43.6041" lon="5.51848">
        <ele>301.59</ele>
        <time>2015-10-29T09:52:54Z</time>
      </trkpt>
      <trkpt lat="43.6043" lon="5.5185">
        <ele>299.47</ele>
        <time>2015-10-29T09:53:12Z</time>
      </trkpt>
      <trkpt lat="43.60447" lon="5.51853">
        <ele>297.44</ele>
        <time>2015-10-29T09:53:29Z</time>
      </trkpt>
      <trkpt lat="43.60465" lon="5.51876">
        <ele>296.4</ele>
        <time>2015-10-29T09:53:50Z</time>
      </trkpt>
      <trkpt lat="43.60484" lon="5.51897">
        <ele>295.73</ele>
        <time>2015-10-29T09:54:12Z</time>
      </trkpt>
      <trkpt lat="43.60505" lon="5.51915">
        <ele>294.04</ele>
        <time>2015-10-29T09:54:34Z</time>
      </trkpt>
      <trkpt lat="43.60522" lon="5.51932">
        <ele>292.99</ele>
        <time>2015-10-29T09:54:54Z</time>
      </trkpt>
      <trkpt lat="43.60546" lon="5.51947">
        <ele>292.13</ele>
        <time>2015-10-29T09:55:18Z</time>
      </trkpt>
      <trkpt lat="43.60553" lon="5.51949">
        <ele>292.33</ele>
        <time>2015-10-29T09:55:27Z</time>
      </trkpt>
      <trkpt lat="43.60568" lon="5.51959">
        <ele>292.57</ele>
        <time>2015-10-29T09:55:43Z</time>
      </trkpt>
      <trkpt lat="43.60591" lon="5.51972">
        <ele>292.65</ele>
        <time>2015-10-29T09:56:05Z</time>
      </trkpt>
      <trkpt lat="43.60615" lon="5.51989">
        <ele>291.86</ele>
        <time>2015-10-29T09:56:30Z</time>
      </trkpt>
      <trkpt lat="43.60637" lon="5.51995">
        <ele>291.1</ele>
        <time>2015-10-29T09:56:51Z</time>
      </trkpt>
      <trkpt lat="43.60648" lon="5.51997">
        <ele>290.34</ele>
        <time>2015-10-29T09:57:10Z</time>
      </trkpt>
      <trkpt lat="43.60648" lon="5.52">
        <ele>290.35</ele>
        <time>2015-10-29T09:57:13Z</time>
      </trkpt>
      <trkpt lat="43.60658" lon="5.52011">
        <ele>290.7</ele>
        <time>2015-10-29T09:57:30Z</time>
      </trkpt>
      <trkpt lat="43.60672" lon="5.52011">
        <ele>290.05</ele>
        <time>2015-10-29T09:57:50Z</time>
      </trkpt>
      <trkpt lat="43.60682" lon="5.52004">
        <ele>288</ele>
        <time>2015-10-29T09:58:07Z</time>
      </trkpt>
      <trkpt lat="43.60692" lon="5.52004">
        <ele>287.34</ele>
        <time>2015-10-29T09:58:21Z</time>
      </trkpt>
      <trkpt lat="43.60705" lon="5.51995">
        <ele>286.38</ele>
        <time>2015-10-29T09:58:38Z</time>
      </trkpt>
      <trkpt lat="43.60713" lon="5.51982">
        <ele>285.88</ele>
        <time>2015-10-29T09:58:56Z</time>
      </trkpt>
      <trkpt lat="43.60721" lon="5.51965">
        <ele>286.95</ele>
        <time>2015-10-29T09:59:16Z</time>
      </trkpt>
      <trkpt lat="43.6073" lon="5.51959">
        <ele>287.75</ele>
        <time>2015-10-29T09:59:27Z</time>
      </trkpt>
      <trkpt lat="43.60741" lon="5.51937">
        <ele>287.94</ele>
        <time>2015-10-29T09:59:47Z</time>
      </trkpt>
      <trkpt lat="43.60742" lon="5.51936">
        <ele>287.98</ele>
        <time>2015-10-29T09:59:49Z</time>
      </trkpt>
      <trkpt lat="43.60755" lon="5.51936">
        <ele>287.6</ele>
        <time>2015-10-29T10:00:05Z</time>
      </trkpt>
      <trkpt lat="43.60773" lon="5.5194">
        <ele>288.68</ele>
        <time>2015-10-29T10:00:24Z</time>
      </trkpt>
      <trkpt lat="43.60783" lon="5.51939">
        <ele>289.17</ele>
        <time>2015-10-29T10:00:41Z</time>
      </trkpt>
      <trkpt lat="43.60799" lon="5.51942">
        <ele>289.18</ele>
        <time>2015-10-29T10:00:58Z</time>
      </trkpt>
      <trkpt lat="43.60821" lon="5.51944">
        <ele>288.69</ele>
        <time>2015-10-29T10:01:17Z</time>
      </trkpt>
      <trkpt lat="43.60841" lon="5.51943">
        <ele>288.98</ele>
        <time>2015-10-29T10:01:34Z</time>
      </trkpt>
      <trkpt lat="43.60863" lon="5.5194">
        <ele>287.59</ele>
        <time>2015-10-29T10:01:54Z</time>
      </trkpt>
      <trkpt lat="43.60882" lon="5.51936">
        <ele>287.67</ele>
        <time>2015-10-29T10:02:11Z</time>
      </trkpt>
      <trkpt lat="43.609" lon="5.51935">
        <ele>287.22</ele>
        <time>2015-10-29T10:02:28Z</time>
      </trkpt>
      <trkpt lat="43.60915" lon="5.51944">
        <ele>286.37</ele>
        <time>2015-10-29T10:02:43Z</time>
      </trkpt>
      <trkpt lat="43.6094" lon="5.51953">
        <ele>285.99</ele>
        <time>2015-10-29T10:03:04Z</time>
      </trkpt>
      <trkpt lat="43.60969" lon="5.5196">
        <ele>286.2</ele>
        <time>2015-10-29T10:03:28Z</time>
      </trkpt>
      <trkpt lat="43.6098" lon="5.51965">
        <ele>286.39</ele>
        <time>2015-10-29T10:03:38Z</time>
      </trkpt>
      <trkpt lat="43.60995" lon="5.51973">
        <ele>285.66</ele>
        <time>2015-10-29T10:03:55Z</time>
      </trkpt>
      <trkpt lat="43.61016" lon="5.51984">
        <ele>284.94</ele>
        <time>2015-10-29T10:04:14Z</time>
      </trkpt>
      <trkpt lat="43.61049" lon="5.52002">
        <ele>284.15</ele>
        <time>2015-10-29T10:04:43Z</time>
      </trkpt>
      <trkpt lat="43.61078" lon="5.52024">
        <ele>283.14</ele>
        <time>2015-10-29T10:05:11Z</time>
      </trkpt>
      <trkpt lat="43.61106" lon="5.5204">
        <ele>282.58</ele>
        <time>2015-10-29T10:05:36Z</time>
      </trkpt>
      <trkpt lat="43.61134" lon="5.52052">
        <ele>281.84</ele>
        <time>2015-10-29T10:06:01Z</time>
      </trkpt>
      <trkpt lat="43.6116" lon="5.5206">
        <ele>281.23</ele>
        <time>2015-10-29T10:06:24Z</time>
      </trkpt>
      <trkpt lat="43.61189" lon="5.52062">
        <ele>280.32</ele>
        <time>2015-10-29T10:06:49Z</time>
      </trkpt>
      <trkpt lat="43.61213" lon="5.52069">
        <ele>279.89</ele>
        <time>2015-10-29T10:07:11Z</time>
      </trkpt>
      <trkpt lat="43.61235" lon="5.52069">
        <ele>278.99</ele>
        <time>2015-10-29T10:07:30Z</time>
      </trkpt>
      <trkpt lat="43.61259" lon="5.52062">
        <ele>278.47</ele>
        <time>2015-10-29T10:07:52Z</time>
      </trkpt>
      <trkpt lat="43.61267" lon="5.52057">
        <ele>278.04</ele>
        <time>2015-10-29T10:08:01Z</time>
      </trkpt>
      <trkpt lat="43.61292" lon="5.52058">
        <ele>277.73</ele>
        <time>2015-10-29T10:08:24Z</time>
      </trkpt>
      <trkpt lat="43.6132" lon="5.52062">
        <ele>277.7</ele>
        <time>2015-10-29T10:08:49Z</time>
      </trkpt>
      <trkpt lat="43.61336" lon="5.52062">
        <ele>277.4</ele>
        <time>2015-10-29T10:09:06Z</time>
      </trkpt>
      <trkpt lat="43.61351" lon="5.5206">
        <ele>276.78</ele>
        <time>2015-10-29T10:09:24Z</time>
      </trkpt>
      <trkpt lat="43.61372" lon="5.52055">
        <ele>277.13</ele>
        <time>2015-10-29T10:09:42Z</time>
      </trkpt>
      <trkpt lat="43.61393" lon="5.52046">
        <ele>277.27</ele>
        <time>2015-10-29T10:10:01Z</time>
      </trkpt>
      <trkpt lat="43.61415" lon="5.52044">
        <ele>277.04</ele>
        <time>2015-10-29T10:10:20Z</time>
      </trkpt>
      <trkpt lat="43.61442" lon="5.52048">
        <ele>276.17</ele>
        <time>2015-10-29T10:10:43Z</time>
      </trkpt>
      <trkpt lat="43.61465" lon="5.52056">
        <ele>275.65</ele>
        <time>2015-10-29T10:11:03Z</time>
      </trkpt>
      <trkpt lat="43.61492" lon="5.52058">
        <ele>275.3</ele>
        <time>2015-10-29T10:11:26Z</time>
      </trkpt>
      <trkpt lat="43.6152" lon="5.52066">
        <ele>275.45</ele>
        <time>2015-10-29T10:11:51Z</time>
      </trkpt>
      <trkpt lat="43.61544" lon="5.52078">
        <ele>274.37</ele>
        <time>2015-10-29T10:12:15Z</time>
      </trkpt>
      <trkpt lat="43.6156" lon="5.52088">
        <ele>273.14</ele>
        <time>2015-10-29T10:12:33Z</time>
      </trkpt>
      <trkpt lat="43.6158" lon="5.52099">
        <ele>272.99</ele>
        <time>2015-10-29T10:12:52Z</time>
      </trkpt>
      <trkpt lat="43.61599" lon="5.52109">
        <ele>272.86</ele>
        <time>2015-10-29T10:13:11Z</time>
      </trkpt>
      <trkpt lat="43.61621" lon="5.52128">
        <ele>272.63</ele>
        <time>2015-10-29T10:13:32Z</time>
      </trkpt>
      <trkpt lat="43.61645" lon="5.52144">
        <ele>272.19</ele>
        <time>2015-10-29T10:13:54Z</time>
      </trkpt>
      <trkpt lat="43.6167" lon="5.52157">
        <ele>271.21</ele>
        <time>2015-10-29T10:14:17Z</time>
      </trkpt>
      <trkpt lat="43.61694" lon="5.5216">
        <ele>271.45</ele>
        <time>2015-10-29T10:14:41Z</time>
      </trkpt>
      <trkpt lat="43.61713" lon="5.52163">
        <ele>272.25</ele>
        <time>2015-10-29T10:15:03Z</time>
      </trkpt>
      <trkpt lat="43.61735" lon="5.52162">
        <ele>270.75</ele>
        <time>2015-10-29T10:15:23Z</time>
      </trkpt>
      <trkpt lat="43.61749" lon="5.52161">
        <ele>270.17</ele>
        <time>2015-10-29T10:15:44Z</time>
      </trkpt>
      <trkpt lat="43.61754" lon="5.52164">
        <ele>270.19</ele>
        <time>2015-10-29T10:16:03Z</time>
      </trkpt>
      <trkpt lat="43.61757" lon="5.52171">
        <ele>270</ele>
        <time>2015-10-29T10:16:11Z</time>
      </trkpt>
      <trkpt lat="43.61765" lon="5.52197">
        <ele>270.57</ele>
        <time>2015-10-29T10:16:33Z</time>
      </trkpt>
      <trkpt lat="43.61768" lon="5.52214">
        <ele>270.59</ele>
        <time>2015-10-29T10:16:48Z</time>
      </trkpt>
      <trkpt lat="43.61767" lon="5.52215">
        <ele>270.65</ele>
        <time>2015-10-29T10:16:49Z</time>
      </trkpt>
      <trkpt lat="43.61764" lon="5.52218">
        <ele>270.98</ele>
        <time>2015-10-29T10:16:53Z</time>
      </trkpt>
      <trkpt lat="43.61763" lon="5.52223">
        <ele>271.44</ele>
        <time>2015-10-29T10:17:10Z</time>
      </trkpt>
      <trkpt lat="43.61757" lon="5.52227">
        <ele>271.52</ele>
        <time>2015-10-29T10:17:29Z</time>
      </trkpt>
      <trkpt lat="43.61749" lon="5.52234">
        <ele>272.76</ele>
        <time>2015-10-29T10:17:47Z</time>
      </trkpt>
      <trkpt lat="43.61737" lon="5.52244">
        <ele>275.09</ele>
        <time>2015-10-29T10:18:07Z</time>
      </trkpt>
      <trkpt lat="43.61731" lon="5.52252">
        <ele>276.76</ele>
        <time>2015-10-29T10:18:22Z</time>
      </trkpt>
      <trkpt lat="43.61724" lon="5.52269">
        <ele>279.05</ele>
        <time>2015-10-29T10:18:43Z</time>
      </trkpt>
      <trkpt lat="43.61707" lon="5.52276">
        <ele>280.54</ele>
        <time>2015-10-29T10:19:02Z</time>
      </trkpt>
      <trkpt lat="43.61698" lon="5.52275">
        <ele>280.75</ele>
        <time>2015-10-29T10:19:13Z</time>
      </trkpt>
      <trkpt lat="43.61687" lon="5.52276">
        <ele>281.25</ele>
        <time>2015-10-29T10:19:27Z</time>
      </trkpt>
      <trkpt lat="43.61685" lon="5.52276">
        <ele>281.28</ele>
        <time>2015-10-29T10:19:29Z</time>
      </trkpt>
      <trkpt lat="43.61665" lon="5.5227">
        <ele>280.28</ele>
        <time>2015-10-29T10:19:48Z</time>
      </trkpt>
      <trkpt lat="43.61642" lon="5.52273">
        <ele>279.58</ele>
        <time>2015-10-29T10:20:09Z</time>
      </trkpt>
      <trkpt lat="43.6162" lon="5.52277">
        <ele>279.54</ele>
        <time>2015-10-29T10:20:29Z</time>
      </trkpt>
      <trkpt lat="43.61596" lon="5.52286">
        <ele>279.99</ele>
        <time>2015-10-29T10:20:51Z</time>
      </trkpt>
      <trkpt lat="43.61577" lon="5.52285">
        <ele>281.66</ele>
        <time>2015-10-29T10:21:11Z</time>
      </trkpt>
      <trkpt lat="43.61557" lon="5.5228">
        <ele>279.62</ele>
        <time>2015-10-29T10:21:33Z</time>
      </trkpt>
      <trkpt lat="43.61545" lon="5.52276">
        <ele>276.98</ele>
        <time>2015-10-29T10:21:49Z</time>
      </trkpt>
      <trkpt lat="43.6153" lon="5.52272">
        <ele>277.51</ele>
        <time>2015-10-29T10:22:10Z</time>
      </trkpt>
      <trkpt lat="43.61512" lon="5.52275">
        <ele>280.33</ele>
        <time>2015-10-29T10:22:31Z</time>
      </trkpt>
      <trkpt lat="43.61496" lon="5.52268">
        <ele>280.28</ele>
        <time>2015-10-29T10:22:49Z</time>
      </trkpt>
      <trkpt lat="43.61477" lon="5.52262">
        <ele>278.18</ele>
        <time>2015-10-29T10:23:09Z</time>
      </trkpt>
      <trkpt lat="43.61475" lon="5.52259">
        <ele>277.89</ele>
        <time>2015-10-29T10:23:13Z</time>
      </trkpt>
      <trkpt lat="43.61462" lon="5.52248">
        <ele>278.75</ele>
        <time>2015-10-29T10:23:31Z</time>
      </trkpt>
      <trkpt lat="43.61448" lon="5.52245">
        <ele>281.1</ele>
        <time>2015-10-29T10:23:49Z</time>
      </trkpt>
      <trkpt lat="43.6143" lon="5.52246">
        <ele>282.13</ele>
        <time>2015-10-29T10:24:08Z</time>
      </trkpt>
      <trkpt lat="43.61413" lon="5.52246">
        <ele>284.07</ele>
        <time>2015-10-29T10:24:29Z</time>
      </trkpt>
      <trkpt lat="43.61391" lon="5.52242">
        <ele>283.49</ele>
        <time>2015-10-29T10:24:50Z</time>
      </trkpt>
      <trkpt lat="43.61373" lon="5.5224">
        <ele>284.3</ele>
        <time>2015-10-29T10:25:10Z</time>
      </trkpt>
      <trkpt lat="43.61364" lon="5.52236">
        <ele>285.09</ele>
        <time>2015-10-29T10:25:21Z</time>
      </trkpt>
      <trkpt lat="43.61346" lon="5.52229">
        <ele>285.05</ele>
        <time>2015-10-29T10:25:41Z</time>
      </trkpt>
      <trkpt lat="43.61337" lon="5.52225">
        <ele>283.15</ele>
        <time>2015-10-29T10:26:01Z</time>
      </trkpt>
      <trkpt lat="43.61332" lon="5.52214">
        <ele>280.92</ele>
        <time>2015-10-29T10:26:16Z</time>
      </trkpt>
      <trkpt lat="43.61328" lon="5.52209">
        <ele>280.3</ele>
        <time>2015-10-29T10:26:20Z</time>
      </trkpt>
      <trkpt lat="43.61307" lon="5.52198">
        <ele>279.7</ele>
        <time>2015-10-29T10:26:40Z</time>
      </trkpt>
      <trkpt lat="43.61282" lon="5.52196">
        <ele>280.15</ele>
        <time>2015-10-29T10:27:03Z</time>
      </trkpt>
      <trkpt lat="43.61269" lon="5.52202">
        <ele>281.47</ele>
        <time>2015-10-29T10:27:21Z</time>
      </trkpt>
      <trkpt lat="43.6126" lon="5.5221">
        <ele>283.29</ele>
        <time>2015-10-29T10:27:37Z</time>
      </trkpt>
      <trkpt lat="43.61251" lon="5.52216">
        <ele>286.38</ele>
        <time>2015-10-29T10:27:57Z</time>
      </trkpt>
      <trkpt lat="43.6124" lon="5.52219">
        <ele>289.42</ele>
        <time>2015-10-29T10:28:19Z</time>
      </trkpt>
      <trkpt lat="43.61227" lon="5.52213">
        <ele>290.63</ele>
        <time>2015-10-29T10:28:39Z</time>
      </trkpt>
      <trkpt lat="43.61216" lon="5.5221">
        <ele>288.4</ele>
        <time>2015-10-29T10:28:58Z</time>
      </trkpt>
      <trkpt lat="43.61205" lon="5.52211">
        <ele>285.92</ele>
        <time>2015-10-29T10:29:15Z</time>
      </trkpt>
      <trkpt lat="43.61185" lon="5.5221">
        <ele>284.34</ele>
        <time>2015-10-29T10:29:36Z</time>
      </trkpt>
      <trkpt lat="43.61168" lon="5.52216">
        <ele>286.47</ele>
        <time>2015-10-29T10:29:57Z</time>
      </trkpt>
      <trkpt lat="43.61148" lon="5.52219">
        <ele>286.7</ele>
        <time>2015-10-29T10:30:17Z</time>
      </trkpt>
      <trkpt lat="43.61129" lon="5.52215">
        <ele>287.38</ele>
        <time>2015-10-29T10:30:37Z</time>
      </trkpt>
      <trkpt lat="43.61112" lon="5.52204">
        <ele>287.42</ele>
        <time>2015-10-29T10:30:57Z</time>
      </trkpt>
      <trkpt lat="43.61091" lon="5.52196">
        <ele>287.44</ele>
        <time>2015-10-29T10:31:18Z</time>
      </trkpt>
      <trkpt lat="43.6107" lon="5.52184">
        <ele>286.18</ele>
        <time>2015-10-29T10:31:42Z</time>
      </trkpt>
      <trkpt lat="43.61056" lon="5.52171">
        <ele>283.92</ele>
        <time>2015-10-29T10:32:02Z</time>
      </trkpt>
      <trkpt lat="43.61034" lon="5.52162">
        <ele>283.08</ele>
        <time>2015-10-29T10:32:23Z</time>
      </trkpt>
      <trkpt lat="43.61007" lon="5.52152">
        <ele>284.08</ele>
        <time>2015-10-29T10:32:47Z</time>
      </trkpt>
      <trkpt lat="43.60978" lon="5.52143">
        <ele>284.53</ele>
        <time>2015-10-29T10:33:13Z</time>
      </trkpt>
      <trkpt lat="43.60954" lon="5.52134">
        <ele>284.59</ele>
        <time>2015-10-29T10:33:34Z</time>
      </trkpt>
      <trkpt lat="43.60929" lon="5.52122">
        <ele>284.88</ele>
        <time>2015-10-29T10:33:57Z</time>
      </trkpt>
      <trkpt lat="43.60908" lon="5.5211">
        <ele>285.7</ele>
        <time>2015-10-29T10:34:19Z</time>
      </trkpt>
      <trkpt lat="43.60887" lon="5.52098">
        <ele>285.37</ele>
        <time>2015-10-29T10:34:39Z</time>
      </trkpt>
      <trkpt lat="43.60868" lon="5.52082">
        <ele>285.24</ele>
        <time>2015-10-29T10:35:00Z</time>
      </trkpt>
      <trkpt lat="43.60852" lon="5.52069">
        <ele>285.83</ele>
        <time>2015-10-29T10:35:19Z</time>
      </trkpt>
      <trkpt lat="43.60835" lon="5.5206">
        <ele>285.13</ele>
        <time>2015-10-29T10:35:41Z</time>
      </trkpt>
      <trkpt lat="43.60828" lon="5.5206">
        <ele>284.84</ele>
        <time>2015-10-29T10:36:00Z</time>
      </trkpt>
      <trkpt lat="43.6082" lon="5.52061">
        <ele>284.39</ele>
        <time>2015-10-29T10:36:18Z</time>
      </trkpt>
      <trkpt lat="43.60816" lon="5.52055">
        <ele>284.07</ele>
        <time>2015-10-29T10:36:32Z</time>
      </trkpt>
      <trkpt lat="43.60805" lon="5.52045">
        <ele>282.85</ele>
        <time>2015-10-29T10:36:49Z</time>
      </trkpt>
      <trkpt lat="43.60796" lon="5.52036">
        <ele>284.26</ele>
        <time>2015-10-29T10:37:06Z</time>
      </trkpt>
      <trkpt lat="43.6078" lon="5.5202">
        <ele>284.81</ele>
        <time>2015-10-29T10:37:28Z</time>
      </trkpt>
      <trkpt lat="43.60763" lon="5.52004">
        <ele>283.48</ele>
        <time>2015-10-29T10:37:48Z</time>
      </trkpt>
      <trkpt lat="43.60742" lon="5.52">
        <ele>283.43</ele>
        <time>2015-10-29T10:38:09Z</time>
      </trkpt>
      <trkpt lat="43.60725" lon="5.52003">
        <ele>283.6</ele>
        <time>2015-10-29T10:38:27Z</time>
      </trkpt>
      <trkpt lat="43.60722" lon="5.52003">
        <ele>283.64</ele>
        <time>2015-10-29T10:38:41Z</time>
      </trkpt>
      <trkpt lat="43.60713" lon="5.52001">
        <ele>282.8</ele>
        <time>2015-10-29T10:38:59Z</time>
      </trkpt>
      <trkpt lat="43.60699" lon="5.51996">
        <ele>281.46</ele>
        <time>2015-10-29T10:39:18Z</time>
      </trkpt>
      <trkpt lat="43.60685" lon="5.51998">
        <ele>281.57</ele>
        <time>2015-10-29T10:39:35Z</time>
      </trkpt>
      <trkpt lat="43.60673" lon="5.52009">
        <ele>283.74</ele>
        <time>2015-10-29T10:39:53Z</time>
      </trkpt>
      <trkpt lat="43.60661" lon="5.52007">
        <ele>284.85</ele>
        <time>2015-10-29T10:40:09Z</time>
      </trkpt>
      <trkpt lat="43.60652" lon="5.51994">
        <ele>284.66</ele>
        <time>2015-10-29T10:40:24Z</time>
      </trkpt>
      <trkpt lat="43.6064" lon="5.51989">
        <ele>284.66</ele>
        <time>2015-10-29T10:40:36Z</time>
      </trkpt>
      <trkpt lat="43.60622" lon="5.51986">
        <ele>284.86</ele>
        <time>2015-10-29T10:40:55Z</time>
      </trkpt>
      <trkpt lat="43.60603" lon="5.51976">
        <ele>285.33</ele>
        <time>2015-10-29T10:41:15Z</time>
      </trkpt>
      <trkpt lat="43.60595" lon="5.51965">
        <ele>285.95</ele>
        <time>2015-10-29T10:41:34Z</time>
      </trkpt>
      <trkpt lat="43.60593" lon="5.51961">
        <ele>286.12</ele>
        <time>2015-10-29T10:41:54Z</time>
      </trkpt>
      <trkpt lat="43.60592" lon="5.51962">
        <ele>284.87</ele>
        <time>2015-10-29T10:42:12Z</time>
      </trkpt>
      <trkpt lat="43.60593" lon="5.51961">
        <ele>285.61</ele>
        <time>2015-10-29T10:42:50Z</time>
      </trkpt>
      <trkpt lat="43.60593" lon="5.51961">
        <ele>285.81</ele>
        <time>2015-10-29T10:43:20Z</time>
      </trkpt>
      <trkpt lat="43.60584" lon="5.51963">
        <ele>285.75</ele>
        <time>2015-10-29T10:43:36Z</time>
      </trkpt>
      <trkpt lat="43.60566" lon="5.51954">
        <ele>285.7</ele>
        <time>2015-10-29T10:43:56Z</time>
      </trkpt>
      <trkpt lat="43.6055" lon="5.51945">
        <ele>285.22</ele>
        <time>2015-10-29T10:44:14Z</time>
      </trkpt>
      <trkpt lat="43.60534" lon="5.51937">
        <ele>285.19</ele>
        <time>2015-10-29T10:44:33Z</time>
      </trkpt>
      <trkpt lat="43.60519" lon="5.51923">
        <ele>286.14</ele>
        <time>2015-10-29T10:44:52Z</time>
      </trkpt>
      <trkpt lat="43.60502" lon="5.51905">
        <ele>287.04</ele>
        <time>2015-10-29T10:45:13Z</time>
      </trkpt>
      <trkpt lat="43.60482" lon="5.5189">
        <ele>288.3</ele>
        <time>2015-10-29T10:45:34Z</time>
      </trkpt>
      <trkpt lat="43.60467" lon="5.51866">
        <ele>288.92</ele>
        <time>2015-10-29T10:45:56Z</time>
      </trkpt>
      <trkpt lat="43.60453" lon="5.51851">
        <ele>289.24</ele>
        <time>2015-10-29T10:46:14Z</time>
      </trkpt>
      <trkpt lat="43.60437" lon="5.51848">
        <ele>290.43</ele>
        <time>2015-10-29T10:46:31Z</time>
      </trkpt>
      <trkpt lat="43.60417" lon="5.51846">
        <ele>292.72</ele>
        <time>2015-10-29T10:46:53Z</time>
      </trkpt>
      <trkpt lat="43.60398" lon="5.51843">
        <ele>294.85</ele>
        <time>2015-10-29T10:47:16Z</time>
      </trkpt>
      <trkpt lat="43.60377" lon="5.51843">
        <ele>296.87</ele>
        <time>2015-10-29T10:47:39Z</time>
      </trkpt>
      <trkpt lat="43.60367" lon="5.51838">
        <ele>297.17</ele>
        <time>2015-10-29T10:47:55Z</time>
      </trkpt>
      <trkpt lat="43.60357" lon="5.51827">
        <ele>296.1</ele>
        <time>2015-10-29T10:48:13Z</time>
      </trkpt>
      <trkpt lat="43.60344" lon="5.51819">
        <ele>297.59</ele>
        <time>2015-10-29T10:48:33Z</time>
      </trkpt>
      <trkpt lat="43.60331" lon="5.51809">
        <ele>298.94</ele>
        <time>2015-10-29T10:48:54Z</time>
      </trkpt>
      <trkpt lat="43.60323" lon="5.51803">
        <ele>299.73</ele>
        <time>2015-10-29T10:49:04Z</time>
      </trkpt>
      <trkpt lat="43.60308" lon="5.51791">
        <ele>299.84</ele>
        <time>2015-10-29T10:49:25Z</time>
      </trkpt>
      <trkpt lat="43.60294" lon="5.5178">
        <ele>299.71</ele>
        <time>2015-10-29T10:49:46Z</time>
      </trkpt>
      <trkpt lat="43.60294" lon="5.51767">
        <ele>298.34</ele>
        <time>2015-10-29T10:50:02Z</time>
      </trkpt>
      <trkpt lat="43.60292" lon="5.51759">
        <ele>297.03</ele>
        <time>2015-10-29T10:50:17Z</time>
      </trkpt>
      <trkpt lat="43.60289" lon="5.51758">
        <ele>296.79</ele>
        <time>2015-10-29T10:50:31Z</time>
      </trkpt>
      <trkpt lat="43.60284" lon="5.51755">
        <ele>296.79</ele>
        <time>2015-10-29T10:50:47Z</time>
      </trkpt>
      <trkpt lat="43.60283" lon="5.51757">
        <ele>295.93</ele>
        <time>2015-10-29T10:51:14Z</time>
      </trkpt>
      <trkpt lat="43.60283" lon="5.51758">
        <ele>295.8</ele>
        <time>2015-10-29T10:51:45Z</time>
      </trkpt>
      <trkpt lat="43.60284" lon="5.51758">
        <ele>294.68</ele>
        <time>2015-10-29T10:53:15Z</time>
      </trkpt>
      <trkpt lat="43.60284" lon="5.51756">
        <ele>294.19</ele>
        <time>2015-10-29T10:55:11Z</time>
      </trkpt>
      <trkpt lat="43.60284" lon="5.51756">
        <ele>293.63</ele>
        <time>2015-10-29T10:56:28Z</time>
      </trkpt>
      <trkpt lat="43.60284" lon="5.51757">
        <ele>293.06</ele>
        <time>2015-10-29T10:58:45Z</time>
      </trkpt>
      <trkpt lat="43.60285" lon="5.51757">
        <ele>292.47</ele>
        <time>2015-10-29T11:01:54Z</time>
      </trkpt>
      <trkpt lat="43.60285" lon="5.51757">
        <ele>292.13</ele>
        <time>2015-10-29T11:09:03Z</time>
      </trkpt>
      <trkpt lat="43.60285" lon="5.51757">
        <ele>292.29</ele>
        <time>2015-10-29T11:10:46Z</time>
      </trkpt>
      <trkpt lat="43.60285" lon="5.51756">
        <ele>291.71</ele>
        <time>2015-10-29T11:13:12Z</time>
      </trkpt>
      <trkpt lat="43.60283" lon="5.51756">
        <ele>292.47</ele>
        <time>2015-10-29T11:14:57Z</time>
      </trkpt>
      <trkpt lat="43.60283" lon="5.51756">
        <ele>291.84</ele>
        <time>2015-10-29T11:17:39Z</time>
      </trkpt>
      <trkpt lat="43.60283" lon="5.51755">
        <ele>290.92</ele>
        <time>2015-10-29T11:21:32Z</time>
      </trkpt>
      <trkpt lat="43.60284" lon="5.51757">
        <ele>290.7</ele>
        <time>2015-10-29T11:24:22Z</time>
      </trkpt>
      <trkpt lat="43.60284" lon="5.51756">
        <ele>290.35</ele>
        <time>2015-10-29T11:27:43Z</time>
      </trkpt>
      <trkpt lat="43.60284" lon="5.51755">
        <ele>290.71</ele>
        <time>2015-10-29T11:28:12Z</time>
      </trkpt>
      <trkpt lat="43.60284" lon="5.51755">
        <ele>290.63</ele>
        <time>2015-10-29T11:28:45Z</time>
      </trkpt>
      <trkpt lat="43.60284" lon="5.51756">
        <ele>290.89</ele>
        <time>2015-10-29T11:29:26Z</time>
      </trkpt>
      <trkpt lat="43.60284" lon="5.51755">
        <ele>291.14</ele>
        <time>2015-10-29T11:30:07Z</time>
      </trkpt>
      <trkpt lat="43.60285" lon="5.51754">
        <ele>291.59</ele>
        <time>2015-10-29T11:30:55Z</time>
      </trkpt>
      <trkpt lat="43.60285" lon="5.51755">
        <ele>291.71</ele>
        <time>2015-10-29T11:31:33Z</time>
      </trkpt>
      <trkpt lat="43.60286" lon="5.51755">
        <ele>291.62</ele>
        <time>2015-10-29T11:32:10Z</time>
      </trkpt>
      <trkpt lat="43.60283" lon="5.51758">
        <ele>291.39</ele>
        <time>2015-10-29T11:33:43Z</time>
      </trkpt>
      <trkpt lat="43.60285" lon="5.51757">
        <ele>291.92</ele>
        <time>2015-10-29T11:34:28Z</time>
      </trkpt>
      <trkpt lat="43.60285" lon="5.51756">
        <ele>291.66</ele>
        <time>2015-10-29T11:35:14Z</time>
      </trkpt>
      <trkpt lat="43.60284" lon="5.51754">
        <ele>291.52</ele>
        <time>2015-10-29T11:35:52Z</time>
      </trkpt>
      <trkpt lat="43.60283" lon="5.51754">
        <ele>291.66</ele>
        <time>2015-10-29T11:36:36Z</time>
      </trkpt>
      <trkpt lat="43.60282" lon="5.51753">
        <ele>291.78</ele>
        <time>2015-10-29T11:37:29Z</time>
      </trkpt>
      <trkpt lat="43.60283" lon="5.51754">
        <ele>291.66</ele>
        <time>2015-10-29T11:38:10Z</time>
      </trkpt>
      <trkpt lat="43.60281" lon="5.51756">
        <ele>291.69</ele>
        <time>2015-10-29T11:38:53Z</time>
      </trkpt>
      <trkpt lat="43.60281" lon="5.51754">
        <ele>292.34</ele>
        <time>2015-10-29T11:39:18Z</time>
      </trkpt>
      <trkpt lat="43.60281" lon="5.51754">
        <ele>292.73</ele>
        <time>2015-10-29T11:39:50Z</time>
      </trkpt>
      <trkpt lat="43.60283" lon="5.51754">
        <ele>292.75</ele>
        <time>2015-10-29T11:40:11Z</time>
      </trkpt>
      <trkpt lat="43.60282" lon="5.51748">
        <ele>292.58</ele>
        <time>2015-10-29T11:40:27Z</time>
      </trkpt>
      <trkpt lat="43.60278" lon="5.51735">
        <ele>291.74</ele>
        <time>2015-10-29T11:40:44Z</time>
      </trkpt>
      <trkpt lat="43.60272" lon="5.51717">
        <ele>290.09</ele>
        <time>2015-10-29T11:41:05Z</time>
      </trkpt>
      <trkpt lat="43.60269" lon="5.51707">
        <ele>289.97</ele>
        <time>2015-10-29T11:41:23Z</time>
      </trkpt>
      <trkpt lat="43.60264" lon="5.51694">
        <ele>289.56</ele>
        <time>2015-10-29T11:41:41Z</time>
      </trkpt>
      <trkpt lat="43.6026" lon="5.51682">
        <ele>288.18</ele>
        <time>2015-10-29T11:41:59Z</time>
      </trkpt>
      <trkpt lat="43.60258" lon="5.51673">
        <ele>287.39</ele>
        <time>2015-10-29T11:42:18Z</time>
      </trkpt>
      <trkpt lat="43.60255" lon="5.51661">
        <ele>285.04</ele>
        <time>2015-10-29T11:42:34Z</time>
      </trkpt>
      <trkpt lat="43.60257" lon="5.51656">
        <ele>284.36</ele>
        <time>2015-10-29T11:42:40Z</time>
      </trkpt>
      <trkpt lat="43.6026" lon="5.51644">
        <ele>284.41</ele>
        <time>2015-10-29T11:42:57Z</time>
      </trkpt>
      <trkpt lat="43.60254" lon="5.51635">
        <ele>286.22</ele>
        <time>2015-10-29T11:43:12Z</time>
      </trkpt>
      <trkpt lat="43.60251" lon="5.51634">
        <ele>286.27</ele>
        <time>2015-10-29T11:43:15Z</time>
      </trkpt>
      <trkpt lat="43.60241" lon="5.51633">
        <ele>286.62</ele>
        <time>2015-10-29T11:43:28Z</time>
      </trkpt>
      <trkpt lat="43.60227" lon="5.51629">
        <ele>287.28</ele>
        <time>2015-10-29T11:43:42Z</time>
      </trkpt>
      <trkpt lat="43.60197" lon="5.51631">
        <ele>287.94</ele>
        <time>2015-10-29T11:44:04Z</time>
      </trkpt>
      <trkpt lat="43.60177" lon="5.51643">
        <ele>288.48</ele>
        <time>2015-10-29T11:44:24Z</time>
      </trkpt>
      <trkpt lat="43.60155" lon="5.51656">
        <ele>289.1</ele>
        <time>2015-10-29T11:44:48Z</time>
      </trkpt>
      <trkpt lat="43.60139" lon="5.51667">
        <ele>289.55</ele>
        <time>2015-10-29T11:45:07Z</time>
      </trkpt>
      <trkpt lat="43.60118" lon="5.51678">
        <ele>290.07</ele>
        <time>2015-10-29T11:45:31Z</time>
      </trkpt>
      <trkpt lat="43.60102" lon="5.51687">
        <ele>290.09</ele>
        <time>2015-10-29T11:45:47Z</time>
      </trkpt>
      <trkpt lat="43.60085" lon="5.51698">
        <ele>290.24</ele>
        <time>2015-10-29T11:46:07Z</time>
      </trkpt>
      <trkpt lat="43.60063" lon="5.51708">
        <ele>290.66</ele>
        <time>2015-10-29T11:46:31Z</time>
      </trkpt>
      <trkpt lat="43.60051" lon="5.51712">
        <ele>290.82</ele>
        <time>2015-10-29T11:46:44Z</time>
      </trkpt>
      <trkpt lat="43.60033" lon="5.51712">
        <ele>291.19</ele>
        <time>2015-10-29T11:47:05Z</time>
      </trkpt>
      <trkpt lat="43.6003" lon="5.51713">
        <ele>291.34</ele>
        <time>2015-10-29T11:47:20Z</time>
      </trkpt>
      <trkpt lat="43.60028" lon="5.51712">
        <ele>290.38</ele>
        <time>2015-10-29T11:47:44Z</time>
      </trkpt>
      <trkpt lat="43.60026" lon="5.51713">
        <ele>291.08</ele>
        <time>2015-10-29T11:47:54Z</time>
      </trkpt>
      <trkpt lat="43.60008" lon="5.51722">
        <ele>292.13</ele>
        <time>2015-10-29T11:48:13Z</time>
      </trkpt>
      <trkpt lat="43.59988" lon="5.51748">
        <ele>292.71</ele>
        <time>2015-10-29T11:48:37Z</time>
      </trkpt>
      <trkpt lat="43.59976" lon="5.5177">
        <ele>293.04</ele>
        <time>2015-10-29T11:48:55Z</time>
      </trkpt>
      <trkpt lat="43.59968" lon="5.51787">
        <ele>293.14</ele>
        <time>2015-10-29T11:49:09Z</time>
      </trkpt>
      <trkpt lat="43.59956" lon="5.51803">
        <ele>293.49</ele>
        <time>2015-10-29T11:49:26Z</time>
      </trkpt>
      <trkpt lat="43.59946" lon="5.51816">
        <ele>293.97</ele>
        <time>2015-10-29T11:49:38Z</time>
      </trkpt>
      <trkpt lat="43.59928" lon="5.51834">
        <ele>294.42</ele>
        <time>2015-10-29T11:49:58Z</time>
      </trkpt>
      <trkpt lat="43.59909" lon="5.51844">
        <ele>294.55</ele>
        <time>2015-10-29T11:50:16Z</time>
      </trkpt>
      <trkpt lat="43.59889" lon="5.5185">
        <ele>294.97</ele>
        <time>2015-10-29T11:50:35Z</time>
      </trkpt>
      <trkpt lat="43.59871" lon="5.51854">
        <ele>295.13</ele>
        <time>2015-10-29T11:50:53Z</time>
      </trkpt>
      <trkpt lat="43.5985" lon="5.51857">
        <ele>295.95</ele>
        <time>2015-10-29T11:51:13Z</time>
      </trkpt>
      <trkpt lat="43.5983" lon="5.51857">
        <ele>296.24</ele>
        <time>2015-10-29T11:51:32Z</time>
      </trkpt>
      <trkpt lat="43.59819" lon="5.51857">
        <ele>296.59</ele>
        <time>2015-10-29T11:51:43Z</time>
      </trkpt>
      <trkpt lat="43.59803" lon="5.51858">
        <ele>296.22</ele>
        <time>2015-10-29T11:52:02Z</time>
      </trkpt>
      <trkpt lat="43.5978" lon="5.51865">
        <ele>295.68</ele>
        <time>2015-10-29T11:52:25Z</time>
      </trkpt>
      <trkpt lat="43.59765" lon="5.51864">
        <ele>296.55</ele>
        <time>2015-10-29T11:52:44Z</time>
      </trkpt>
      <trkpt lat="43.59748" lon="5.51871">
        <ele>296.27</ele>
        <time>2015-10-29T11:53:03Z</time>
      </trkpt>
      <trkpt lat="43.59731" lon="5.51872">
        <ele>296.89</ele>
        <time>2015-10-29T11:53:20Z</time>
      </trkpt>
      <trkpt lat="43.59718" lon="5.51867">
        <ele>298.16</ele>
        <time>2015-10-29T11:53:38Z</time>
      </trkpt>
      <trkpt lat="43.59701" lon="5.51865">
        <ele>299.75</ele>
        <time>2015-10-29T11:53:57Z</time>
      </trkpt>
      <trkpt lat="43.59697" lon="5.51874">
        <ele>300.81</ele>
        <time>2015-10-29T11:54:12Z</time>
      </trkpt>
      <trkpt lat="43.59705" lon="5.51887">
        <ele>301.05</ele>
        <time>2015-10-29T11:54:29Z</time>
      </trkpt>
      <trkpt lat="43.59707" lon="5.51904">
        <ele>301.87</ele>
        <time>2015-10-29T11:54:46Z</time>
      </trkpt>
      <trkpt lat="43.59716" lon="5.51925">
        <ele>304.07</ele>
        <time>2015-10-29T11:55:06Z</time>
      </trkpt>
      <trkpt lat="43.5972" lon="5.51941">
        <ele>304.19</ele>
        <time>2015-10-29T11:55:20Z</time>
      </trkpt>
      <trkpt lat="43.59723" lon="5.51967">
        <ele>304.88</ele>
        <time>2015-10-29T11:55:41Z</time>
      </trkpt>
      <trkpt lat="43.59724" lon="5.51994">
        <ele>306.45</ele>
        <time>2015-10-29T11:56:02Z</time>
      </trkpt>
      <trkpt lat="43.59722" lon="5.5202">
        <ele>307.24</ele>
        <time>2015-10-29T11:56:23Z</time>
      </trkpt>
      <trkpt lat="43.59719" lon="5.52034">
        <ele>307.66</ele>
        <time>2015-10-29T11:56:40Z</time>
      </trkpt>
      <trkpt lat="43.59715" lon="5.52053">
        <ele>307.87</ele>
        <time>2015-10-29T11:56:57Z</time>
      </trkpt>
      <trkpt lat="43.59706" lon="5.52076">
        <ele>308.14</ele>
        <time>2015-10-29T11:57:18Z</time>
      </trkpt>
      <trkpt lat="43.59696" lon="5.52102">
        <ele>309.13</ele>
        <time>2015-10-29T11:57:41Z</time>
      </trkpt>
      <trkpt lat="43.59682" lon="5.52132">
        <ele>309.58</ele>
        <time>2015-10-29T11:58:08Z</time>
      </trkpt>
      <trkpt lat="43.59679" lon="5.52147">
        <ele>309.75</ele>
        <time>2015-10-29T11:58:25Z</time>
      </trkpt>
      <trkpt lat="43.59674" lon="5.5215">
        <ele>309.98</ele>
        <time>2015-10-29T11:58:39Z</time>
      </trkpt>
      <trkpt lat="43.59664" lon="5.52149">
        <ele>310.33</ele>
        <time>2015-10-29T11:58:56Z</time>
      </trkpt>
      <trkpt lat="43.59653" lon="5.52151">
        <ele>311.72</ele>
        <time>2015-10-29T11:59:13Z</time>
      </trkpt>
      <trkpt lat="43.59643" lon="5.52163">
        <ele>312.7</ele>
        <time>2015-10-29T11:59:29Z</time>
      </trkpt>
      <trkpt lat="43.5964" lon="5.52174">
        <ele>312.89</ele>
        <time>2015-10-29T11:59:43Z</time>
      </trkpt>
      <trkpt lat="43.59639" lon="5.52189">
        <ele>312.97</ele>
        <time>2015-10-29T11:59:58Z</time>
      </trkpt>
      <trkpt lat="43.59636" lon="5.52207">
        <ele>312.8</ele>
        <time>2015-10-29T12:00:14Z</time>
      </trkpt>
      <trkpt lat="43.5963" lon="5.5223">
        <ele>312.03</ele>
        <time>2015-10-29T12:00:34Z</time>
      </trkpt>
      <trkpt lat="43.59626" lon="5.5225">
        <ele>312.19</ele>
        <time>2015-10-29T12:00:49Z</time>
      </trkpt>
      <trkpt lat="43.59616" lon="5.52272">
        <ele>312.6</ele>
        <time>2015-10-29T12:01:04Z</time>
      </trkpt>
      <trkpt lat="43.59608" lon="5.52291">
        <ele>313.06</ele>
        <time>2015-10-29T12:01:21Z</time>
      </trkpt>
      <trkpt lat="43.59601" lon="5.52307">
        <ele>312.9</ele>
        <time>2015-10-29T12:01:36Z</time>
      </trkpt>
      <trkpt lat="43.59593" lon="5.52329">
        <ele>313.13</ele>
        <time>2015-10-29T12:01:54Z</time>
      </trkpt>
      <trkpt lat="43.59587" lon="5.52349">
        <ele>313.17</ele>
        <time>2015-10-29T12:02:14Z</time>
      </trkpt>
      <trkpt lat="43.59577" lon="5.52369">
        <ele>313.69</ele>
        <time>2015-10-29T12:02:31Z</time>
      </trkpt>
      <trkpt lat="43.59567" lon="5.52389">
        <ele>314.2</ele>
        <time>2015-10-29T12:02:48Z</time>
      </trkpt>
      <trkpt lat="43.59563" lon="5.52415">
        <ele>314.79</ele>
        <time>2015-10-29T12:03:02Z</time>
      </trkpt>
      <trkpt lat="43.59556" lon="5.52434">
        <ele>315.32</ele>
        <time>2015-10-29T12:03:18Z</time>
      </trkpt>
      <trkpt lat="43.5955" lon="5.52463">
        <ele>315.63</ele>
        <time>2015-10-29T12:03:34Z</time>
      </trkpt>
      <trkpt lat="43.59548" lon="5.52468">
        <ele>315.87</ele>
        <time>2015-10-29T12:03:37Z</time>
      </trkpt>
      <trkpt lat="43.59547" lon="5.52472">
        <ele>315.89</ele>
        <time>2015-10-29T12:03:40Z</time>
      </trkpt>
      <trkpt lat="43.59544" lon="5.52498">
        <ele>315.65</ele>
        <time>2015-10-29T12:03:57Z</time>
      </trkpt>
      <trkpt lat="43.59544" lon="5.5252">
        <ele>316</ele>
        <time>2015-10-29T12:04:15Z</time>
      </trkpt>
      <trkpt lat="43.59544" lon="5.52542">
        <ele>315.72</ele>
        <time>2015-10-29T12:04:31Z</time>
      </trkpt>
      <trkpt lat="43.5954" lon="5.52563">
        <ele>315.59</ele>
        <time>2015-10-29T12:04:52Z</time>
      </trkpt>
      <trkpt lat="43.59545" lon="5.52568">
        <ele>315.97</ele>
        <time>2015-10-29T12:05:26Z</time>
      </trkpt>
      <trkpt lat="43.59549" lon="5.52573">
        <ele>316.45</ele>
        <time>2015-10-29T12:06:07Z</time>
      </trkpt>
      <trkpt lat="43.5955" lon="5.52576">
        <ele>316.74</ele>
        <time>2015-10-29T12:06:42Z</time>
      </trkpt>
      <trkpt lat="43.5955" lon="5.52577">
        <ele>316.96</ele>
        <time>2015-10-29T12:07:21Z</time>
      </trkpt>
      <trkpt lat="43.5955" lon="5.52575">
        <ele>317.25</ele>
        <time>2015-10-29T12:08:05Z</time>
      </trkpt>
      <trkpt lat="43.59549" lon="5.52573">
        <ele>317.23</ele>
        <time>2015-10-29T12:08:31Z</time>
      </trkpt>
      <trkpt lat="43.59547" lon="5.52562">
        <ele>317.36</ele>
        <time>2015-10-29T12:08:48Z</time>
      </trkpt>
      <trkpt lat="43.59549" lon="5.52545">
        <ele>317.99</ele>
        <time>2015-10-29T12:09:04Z</time>
      </trkpt>
      <trkpt lat="43.59548" lon="5.52541">
        <ele>318.08</ele>
        <time>2015-10-29T12:09:07Z</time>
      </trkpt>
      <trkpt lat="43.59546" lon="5.52513">
        <ele>318.24</ele>
        <time>2015-10-29T12:09:27Z</time>
      </trkpt>
      <trkpt lat="43.59552" lon="5.52487">
        <ele>318.4</ele>
        <time>2015-10-29T12:09:47Z</time>
      </trkpt>
      <trkpt lat="43.59558" lon="5.52463">
        <ele>318.43</ele>
        <time>2015-10-29T12:10:05Z</time>
      </trkpt>
      <trkpt lat="43.59565" lon="5.52445">
        <ele>318.28</ele>
        <time>2015-10-29T12:10:21Z</time>
      </trkpt>
      <trkpt lat="43.59574" lon="5.52416">
        <ele>318.25</ele>
        <time>2015-10-29T12:10:42Z</time>
      </trkpt>
      <trkpt lat="43.5958" lon="5.52398">
        <ele>317.93</ele>
        <time>2015-10-29T12:11:01Z</time>
      </trkpt>
      <trkpt lat="43.59588" lon="5.52368">
        <ele>318.04</ele>
        <time>2015-10-29T12:11:20Z</time>
      </trkpt>
      <trkpt lat="43.59597" lon="5.5234">
        <ele>318.04</ele>
        <time>2015-10-29T12:11:34Z</time>
      </trkpt>
      <trkpt lat="43.59607" lon="5.52312">
        <ele>318.36</ele>
        <time>2015-10-29T12:11:52Z</time>
      </trkpt>
      <trkpt lat="43.59618" lon="5.52294">
        <ele>318.68</ele>
        <time>2015-10-29T12:12:07Z</time>
      </trkpt>
      <trkpt lat="43.5962" lon="5.5229">
        <ele>318.68</ele>
        <time>2015-10-29T12:12:10Z</time>
      </trkpt>
      <trkpt lat="43.59631" lon="5.5226">
        <ele>318.54</ele>
        <time>2015-10-29T12:12:28Z</time>
      </trkpt>
      <trkpt lat="43.59635" lon="5.52241">
        <ele>318.51</ele>
        <time>2015-10-29T12:12:47Z</time>
      </trkpt>
      <trkpt lat="43.59636" lon="5.52219">
        <ele>319.31</ele>
        <time>2015-10-29T12:13:06Z</time>
      </trkpt>
      <trkpt lat="43.59637" lon="5.52205">
        <ele>319.45</ele>
        <time>2015-10-29T12:13:17Z</time>
      </trkpt>
      <trkpt lat="43.59639" lon="5.5218">
        <ele>319.59</ele>
        <time>2015-10-29T12:13:34Z</time>
      </trkpt>
      <trkpt lat="43.59642" lon="5.52168">
        <ele>320.05</ele>
        <time>2015-10-29T12:13:46Z</time>
      </trkpt>
      <trkpt lat="43.59653" lon="5.52158">
        <ele>318.89</ele>
        <time>2015-10-29T12:14:04Z</time>
      </trkpt>
      <trkpt lat="43.59656" lon="5.52146">
        <ele>318.19</ele>
        <time>2015-10-29T12:14:20Z</time>
      </trkpt>
      <trkpt lat="43.59652" lon="5.52126">
        <ele>319</ele>
        <time>2015-10-29T12:14:35Z</time>
      </trkpt>
      <trkpt lat="43.59644" lon="5.5211">
        <ele>320.2</ele>
        <time>2015-10-29T12:14:55Z</time>
      </trkpt>
      <trkpt lat="43.59638" lon="5.52107">
        <ele>320.97</ele>
        <time>2015-10-29T12:15:01Z</time>
      </trkpt>
      <trkpt lat="43.5963" lon="5.52097">
        <ele>321.76</ele>
        <time>2015-10-29T12:15:10Z</time>
      </trkpt>
      <trkpt lat="43.59616" lon="5.52075">
        <ele>322.85</ele>
        <time>2015-10-29T12:15:32Z</time>
      </trkpt>
      <trkpt lat="43.59603" lon="5.52064">
        <ele>323.84</ele>
        <time>2015-10-29T12:15:49Z</time>
      </trkpt>
      <trkpt lat="43.59591" lon="5.52053">
        <ele>325.79</ele>
        <time>2015-10-29T12:16:10Z</time>
      </trkpt>
      <trkpt lat="43.5959" lon="5.52048">
        <ele>325.99</ele>
        <time>2015-10-29T12:16:32Z</time>
      </trkpt>
      <trkpt lat="43.59586" lon="5.52047">
        <ele>325.76</ele>
        <time>2015-10-29T12:16:55Z</time>
      </trkpt>
      <trkpt lat="43.59581" lon="5.5205">
        <ele>326.67</ele>
        <time>2015-10-29T12:17:21Z</time>
      </trkpt>
      <trkpt lat="43.59569" lon="5.52054">
        <ele>328.18</ele>
        <time>2015-10-29T12:17:35Z</time>
      </trkpt>
      <trkpt lat="43.59555" lon="5.52061">
        <ele>330.13</ele>
        <time>2015-10-29T12:17:54Z</time>
      </trkpt>
      <trkpt lat="43.59545" lon="5.52066">
        <ele>331.21</ele>
        <time>2015-10-29T12:18:11Z</time>
      </trkpt>
      <trkpt lat="43.5953" lon="5.52071">
        <ele>332.07</ele>
        <time>2015-10-29T12:18:29Z</time>
      </trkpt>
      <trkpt lat="43.59515" lon="5.52073">
        <ele>333.4</ele>
        <time>2015-10-29T12:18:47Z</time>
      </trkpt>
      <trkpt lat="43.59503" lon="5.52074">
        <ele>334.85</ele>
        <time>2015-10-29T12:19:03Z</time>
      </trkpt>
      <trkpt lat="43.59488" lon="5.52078">
        <ele>337.21</ele>
        <time>2015-10-29T12:19:23Z</time>
      </trkpt>
      <trkpt lat="43.5947" lon="5.52085">
        <ele>340.01</ele>
        <time>2015-10-29T12:19:42Z</time>
      </trkpt>
      <trkpt lat="43.59458" lon="5.52097">
        <ele>342.51</ele>
        <time>2015-10-29T12:19:59Z</time>
      </trkpt>
      <trkpt lat="43.59455" lon="5.52106">
        <ele>344.69</ele>
        <time>2015-10-29T12:20:17Z</time>
      </trkpt>
      <trkpt lat="43.5945" lon="5.5211">
        <ele>345.66</ele>
        <time>2015-10-29T12:20:39Z</time>
      </trkpt>
      <trkpt lat="43.59444" lon="5.52114">
        <ele>346.27</ele>
        <time>2015-10-29T12:20:58Z</time>
      </trkpt>
      <trkpt lat="43.59442" lon="5.52113">
        <ele>345.22</ele>
        <time>2015-10-29T12:21:46Z</time>
      </trkpt>
      <trkpt lat="43.59441" lon="5.52112">
        <ele>345.81</ele>
        <time>2015-10-29T12:22:56Z</time>
      </trkpt>
      <trkpt lat="43.59441" lon="5.52114">
        <ele>345.8</ele>
        <time>2015-10-29T12:24:10Z</time>
      </trkpt>
      <trkpt lat="43.5944" lon="5.52122">
        <ele>346.04</ele>
        <time>2015-10-29T12:24:30Z</time>
      </trkpt>
      <trkpt lat="43.59437" lon="5.52131">
        <ele>347.58</ele>
        <time>2015-10-29T12:24:52Z</time>
      </trkpt>
      <trkpt lat="43.59433" lon="5.52126">
        <ele>348.81</ele>
        <time>2015-10-29T12:25:12Z</time>
      </trkpt>
      <trkpt lat="43.59428" lon="5.52113">
        <ele>351.09</ele>
        <time>2015-10-29T12:25:35Z</time>
      </trkpt>
      <trkpt lat="43.59423" lon="5.52114">
        <ele>352.91</ele>
        <time>2015-10-29T12:25:53Z</time>
      </trkpt>
      <trkpt lat="43.59418" lon="5.52118">
        <ele>355.74</ele>
        <time>2015-10-29T12:26:17Z</time>
      </trkpt>
      <trkpt lat="43.59413" lon="5.52121">
        <ele>357.21</ele>
        <time>2015-10-29T12:26:35Z</time>
      </trkpt>
      <trkpt lat="43.59406" lon="5.52126">
        <ele>359.67</ele>
        <time>2015-10-29T12:26:55Z</time>
      </trkpt>
      <trkpt lat="43.59401" lon="5.52129">
        <ele>361.77</ele>
        <time>2015-10-29T12:27:07Z</time>
      </trkpt>
      <trkpt lat="43.59393" lon="5.52135">
        <ele>364.5</ele>
        <time>2015-10-29T12:27:26Z</time>
      </trkpt>
      <trkpt lat="43.59384" lon="5.52143">
        <ele>367.17</ele>
        <time>2015-10-29T12:27:48Z</time>
      </trkpt>
      <trkpt lat="43.59375" lon="5.52149">
        <ele>369.27</ele>
        <time>2015-10-29T12:28:07Z</time>
      </trkpt>
      <trkpt lat="43.59366" lon="5.52156">
        <ele>371.92</ele>
        <time>2015-10-29T12:28:25Z</time>
      </trkpt>
      <trkpt lat="43.59358" lon="5.52165">
        <ele>374.12</ele>
        <time>2015-10-29T12:28:42Z</time>
      </trkpt>
      <trkpt lat="43.59349" lon="5.52174">
        <ele>375.86</ele>
        <time>2015-10-29T12:29:00Z</time>
      </trkpt>
      <trkpt lat="43.59338" lon="5.52184">
        <ele>377.42</ele>
        <time>2015-10-29T12:29:17Z</time>
      </trkpt>
      <trkpt lat="43.59327" lon="5.52197">
        <ele>378.76</ele>
        <time>2015-10-29T12:29:34Z</time>
      </trkpt>
      <trkpt lat="43.5931" lon="5.52207">
        <ele>380.06</ele>
        <time>2015-10-29T12:29:52Z</time>
      </trkpt>
      <trkpt lat="43.59292" lon="5.52221">
        <ele>381.68</ele>
        <time>2015-10-29T12:30:14Z</time>
      </trkpt>
      <trkpt lat="43.59277" lon="5.52233">
        <ele>382.21</ele>
        <time>2015-10-29T12:30:32Z</time>
      </trkpt>
      <trkpt lat="43.59261" lon="5.52241">
        <ele>382.76</ele>
        <time>2015-10-29T12:30:49Z</time>
      </trkpt>
      <trkpt lat="43.59245" lon="5.52251">
        <ele>383.49</ele>
        <time>2015-10-29T12:31:08Z</time>
      </trkpt>
      <trkpt lat="43.59229" lon="5.52261">
        <ele>384.28</ele>
        <time>2015-10-29T12:31:27Z</time>
      </trkpt>
      <trkpt lat="43.59212" lon="5.52271">
        <ele>385</ele>
        <time>2015-10-29T12:31:44Z</time>
      </trkpt>
      <trkpt lat="43.59195" lon="5.52279">
        <ele>385.25</ele>
        <time>2015-10-29T12:32:02Z</time>
      </trkpt>
      <trkpt lat="43.59178" lon="5.52286">
        <ele>384.99</ele>
        <time>2015-10-29T12:32:19Z</time>
      </trkpt>
      <trkpt lat="43.59157" lon="5.52285">
        <ele>383.99</ele>
        <time>2015-10-29T12:32:38Z</time>
      </trkpt>
      <trkpt lat="43.59138" lon="5.52281">
        <ele>382.16</ele>
        <time>2015-10-29T12:32:59Z</time>
      </trkpt>
      <trkpt lat="43.59122" lon="5.52281">
        <ele>381.64</ele>
        <time>2015-10-29T12:33:19Z</time>
      </trkpt>
      <trkpt lat="43.59111" lon="5.52281">
        <ele>381.23</ele>
        <time>2015-10-29T12:33:40Z</time>
      </trkpt>
      <trkpt lat="43.59108" lon="5.52276">
        <ele>381.55</ele>
        <time>2015-10-29T12:34:07Z</time>
      </trkpt>
      <trkpt lat="43.59107" lon="5.52276">
        <ele>381.51</ele>
        <time>2015-10-29T12:34:53Z</time>
      </trkpt>
      <trkpt lat="43.59102" lon="5.52287">
        <ele>381.22</ele>
        <time>2015-10-29T12:35:11Z</time>
      </trkpt>
      <trkpt lat="43.59089" lon="5.52299">
        <ele>380.27</ele>
        <time>2015-10-29T12:35:32Z</time>
      </trkpt>
      <trkpt lat="43.59079" lon="5.52309">
        <ele>379.53</ele>
        <time>2015-10-29T12:35:49Z</time>
      </trkpt>
      <trkpt lat="43.59062" lon="5.52314">
        <ele>378.17</ele>
        <time>2015-10-29T12:36:11Z</time>
      </trkpt>
      <trkpt lat="43.59042" lon="5.52303">
        <ele>377.09</ele>
        <time>2015-10-29T12:36:33Z</time>
      </trkpt>
      <trkpt lat="43.59027" lon="5.52294">
        <ele>375.52</ele>
        <time>2015-10-29T12:36:52Z</time>
      </trkpt>
      <trkpt lat="43.59022" lon="5.5229">
        <ele>374.62</ele>
        <time>2015-10-29T12:37:01Z</time>
      </trkpt>
      <trkpt lat="43.59008" lon="5.52282">
        <ele>373.69</ele>
        <time>2015-10-29T12:37:17Z</time>
      </trkpt>
      <trkpt lat="43.58992" lon="5.52285">
        <ele>373.9</ele>
        <time>2015-10-29T12:37:37Z</time>
      </trkpt>
      <trkpt lat="43.58973" lon="5.52288">
        <ele>374.74</ele>
        <time>2015-10-29T12:37:59Z</time>
      </trkpt>
      <trkpt lat="43.58954" lon="5.52292">
        <ele>375.29</ele>
        <time>2015-10-29T12:38:18Z</time>
      </trkpt>
      <trkpt lat="43.58937" lon="5.52302">
        <ele>375.97</ele>
        <time>2015-10-29T12:38:37Z</time>
      </trkpt>
      <trkpt lat="43.5891" lon="5.52309">
        <ele>376.74</ele>
        <time>2015-10-29T12:39:00Z</time>
      </trkpt>
      <trkpt lat="43.5889" lon="5.52312">
        <ele>377.29</ele>
        <time>2015-10-29T12:39:20Z</time>
      </trkpt>
      <trkpt lat="43.58876" lon="5.52313">
        <ele>376.55</ele>
        <time>2015-10-29T12:39:37Z</time>
      </trkpt>
      <trkpt lat="43.58859" lon="5.52313">
        <ele>375.85</ele>
        <time>2015-10-29T12:39:57Z</time>
      </trkpt>
      <trkpt lat="43.58844" lon="5.52317">
        <ele>376.18</ele>
        <time>2015-10-29T12:40:21Z</time>
      </trkpt>
      <trkpt lat="43.58825" lon="5.52323">
        <ele>376.25</ele>
        <time>2015-10-29T12:40:43Z</time>
      </trkpt>
      <trkpt lat="43.58806" lon="5.52326">
        <ele>376.74</ele>
        <time>2015-10-29T12:41:01Z</time>
      </trkpt>
      <trkpt lat="43.58794" lon="5.52318">
        <ele>377.4</ele>
        <time>2015-10-29T12:41:18Z</time>
      </trkpt>
      <trkpt lat="43.58782" lon="5.52297">
        <ele>377.96</ele>
        <time>2015-10-29T12:41:39Z</time>
      </trkpt>
      <trkpt lat="43.58763" lon="5.52289">
        <ele>377.98</ele>
        <time>2015-10-29T12:41:53Z</time>
      </trkpt>
      <trkpt lat="43.58752" lon="5.52274">
        <ele>378.32</ele>
        <time>2015-10-29T12:42:11Z</time>
      </trkpt>
      <trkpt lat="43.58743" lon="5.52264">
        <ele>379.34</ele>
        <time>2015-10-29T12:42:23Z</time>
      </trkpt>
      <trkpt lat="43.58736" lon="5.52248">
        <ele>380.47</ele>
        <time>2015-10-29T12:42:40Z</time>
      </trkpt>
      <trkpt lat="43.58732" lon="5.52237">
        <ele>380.86</ele>
        <time>2015-10-29T12:42:48Z</time>
      </trkpt>
      <trkpt lat="43.58726" lon="5.52224">
        <ele>381.48</ele>
        <time>2015-10-29T12:42:58Z</time>
      </trkpt>
      <trkpt lat="43.58718" lon="5.52193">
        <ele>382.56</ele>
        <time>2015-10-29T12:43:20Z</time>
      </trkpt>
      <trkpt lat="43.58707" lon="5.5217">
        <ele>383.61</ele>
        <time>2015-10-29T12:43:39Z</time>
      </trkpt>
      <trkpt lat="43.58695" lon="5.52152">
        <ele>384.72</ele>
        <time>2015-10-29T12:44:00Z</time>
      </trkpt>
      <trkpt lat="43.58688" lon="5.5215">
        <ele>384.6</ele>
        <time>2015-10-29T12:44:18Z</time>
      </trkpt>
      <trkpt lat="43.58682" lon="5.52149">
        <ele>384.43</ele>
        <time>2015-10-29T12:44:51Z</time>
      </trkpt>
      <trkpt lat="43.58677" lon="5.52146">
        <ele>383.85</ele>
        <time>2015-10-29T12:45:17Z</time>
      </trkpt>
      <trkpt lat="43.58663" lon="5.52131">
        <ele>382.75</ele>
        <time>2015-10-29T12:45:39Z</time>
      </trkpt>
      <trkpt lat="43.58653" lon="5.5212">
        <ele>381.55</ele>
        <time>2015-10-29T12:45:54Z</time>
      </trkpt>
      <trkpt lat="43.58642" lon="5.5211">
        <ele>379.97</ele>
        <time>2015-10-29T12:46:07Z</time>
      </trkpt>
      <trkpt lat="43.58637" lon="5.52102">
        <ele>379.02</ele>
        <time>2015-10-29T12:46:15Z</time>
      </trkpt>
      <trkpt lat="43.58631" lon="5.52095">
        <ele>378.32</ele>
        <time>2015-10-29T12:46:22Z</time>
      </trkpt>
      <trkpt lat="43.58621" lon="5.52077">
        <ele>377.79</ele>
        <time>2015-10-29T12:46:38Z</time>
      </trkpt>
      <trkpt lat="43.58611" lon="5.52055">
        <ele>377.25</ele>
        <time>2015-10-29T12:46:56Z</time>
      </trkpt>
      <trkpt lat="43.58599" lon="5.52036">
        <ele>377.61</ele>
        <time>2015-10-29T12:47:14Z</time>
      </trkpt>
      <trkpt lat="43.58597" lon="5.52034">
        <ele>377.88</ele>
        <time>2015-10-29T12:47:16Z</time>
      </trkpt>
      <trkpt lat="43.58584" lon="5.52012">
        <ele>379.12</ele>
        <time>2015-10-29T12:47:36Z</time>
      </trkpt>
      <trkpt lat="43.58573" lon="5.51985">
        <ele>380.6</ele>
        <time>2015-10-29T12:47:56Z</time>
      </trkpt>
      <trkpt lat="43.58563" lon="5.51968">
        <ele>381.19</ele>
        <time>2015-10-29T12:48:12Z</time>
      </trkpt>
      <trkpt lat="43.58559" lon="5.51949">
        <ele>382.12</ele>
        <time>2015-10-29T12:48:29Z</time>
      </trkpt>
      <trkpt lat="43.58554" lon="5.5193">
        <ele>382.5</ele>
        <time>2015-10-29T12:48:43Z</time>
      </trkpt>
      <trkpt lat="43.58543" lon="5.51906">
        <ele>381.66</ele>
        <time>2015-10-29T12:49:02Z</time>
      </trkpt>
      <trkpt lat="43.58539" lon="5.51892">
        <ele>380.62</ele>
        <time>2015-10-29T12:49:17Z</time>
      </trkpt>
      <trkpt lat="43.58538" lon="5.51886">
        <ele>379.61</ele>
        <time>2015-10-29T12:49:38Z</time>
      </trkpt>
      <trkpt lat="43.58529" lon="5.51874">
        <ele>378.18</ele>
        <time>2015-10-29T12:49:55Z</time>
      </trkpt>
      <trkpt lat="43.58519" lon="5.51861">
        <ele>376.78</ele>
        <time>2015-10-29T12:50:11Z</time>
      </trkpt>
      <trkpt lat="43.58506" lon="5.51842">
        <ele>374.84</ele>
        <time>2015-10-29T12:50:32Z</time>
      </trkpt>
      <trkpt lat="43.58496" lon="5.51832">
        <ele>373.4</ele>
        <time>2015-10-29T12:50:45Z</time>
      </trkpt>
      <trkpt lat="43.58479" lon="5.51815">
        <ele>372.91</ele>
        <time>2015-10-29T12:51:05Z</time>
      </trkpt>
      <trkpt lat="43.58466" lon="5.51794">
        <ele>374.55</ele>
        <time>2015-10-29T12:51:24Z</time>
      </trkpt>
      <trkpt lat="43.58451" lon="5.51777">
        <ele>374.53</ele>
        <time>2015-10-29T12:51:44Z</time>
      </trkpt>
      <trkpt lat="43.58437" lon="5.51762">
        <ele>374.05</ele>
        <time>2015-10-29T12:52:02Z</time>
      </trkpt>
      <trkpt lat="43.58426" lon="5.51746">
        <ele>376.05</ele>
        <time>2015-10-29T12:52:20Z</time>
      </trkpt>
      <trkpt lat="43.58414" lon="5.51729">
        <ele>379.05</ele>
        <time>2015-10-29T12:52:40Z</time>
      </trkpt>
      <trkpt lat="43.58407" lon="5.51715">
        <ele>380.54</ele>
        <time>2015-10-29T12:52:56Z</time>
      </trkpt>
      <trkpt lat="43.58396" lon="5.51702">
        <ele>380.39</ele>
        <time>2015-10-29T12:53:17Z</time>
      </trkpt>
      <trkpt lat="43.58388" lon="5.51683">
        <ele>378.85</ele>
        <time>2015-10-29T12:53:34Z</time>
      </trkpt>
      <trkpt lat="43.58377" lon="5.51672">
        <ele>377.52</ele>
        <time>2015-10-29T12:53:52Z</time>
      </trkpt>
      <trkpt lat="43.58358" lon="5.51661">
        <ele>375.57</ele>
        <time>2015-10-29T12:54:11Z</time>
      </trkpt>
      <trkpt lat="43.58344" lon="5.51646">
        <ele>373.04</ele>
        <time>2015-10-29T12:54:33Z</time>
      </trkpt>
      <trkpt lat="43.58332" lon="5.51634">
        <ele>370.19</ele>
        <time>2015-10-29T12:54:51Z</time>
      </trkpt>
      <trkpt lat="43.58328" lon="5.51624">
        <ele>367.12</ele>
        <time>2015-10-29T12:55:08Z</time>
      </trkpt>
      <trkpt lat="43.58326" lon="5.51613">
        <ele>364.09</ele>
        <time>2015-10-29T12:55:22Z</time>
      </trkpt>
      <trkpt lat="43.5832" lon="5.51609">
        <ele>361.98</ele>
        <time>2015-10-29T12:55:44Z</time>
      </trkpt>
      <trkpt lat="43.58315" lon="5.51612">
        <ele>361.76</ele>
        <time>2015-10-29T12:56:10Z</time>
      </trkpt>
      <trkpt lat="43.58316" lon="5.51607">
        <ele>361.52</ele>
        <time>2015-10-29T12:56:40Z</time>
      </trkpt>
      <trkpt lat="43.58327" lon="5.51595">
        <ele>360.13</ele>
        <time>2015-10-29T12:57:06Z</time>
      </trkpt>
      <trkpt lat="43.5834" lon="5.51578">
        <ele>359.41</ele>
        <time>2015-10-29T12:57:26Z</time>
      </trkpt>
      <trkpt lat="43.58354" lon="5.51558">
        <ele>359.24</ele>
        <time>2015-10-29T12:57:48Z</time>
      </trkpt>
      <trkpt lat="43.58363" lon="5.51539">
        <ele>358.59</ele>
        <time>2015-10-29T12:58:07Z</time>
      </trkpt>
      <trkpt lat="43.58376" lon="5.5152">
        <ele>358.15</ele>
        <time>2015-10-29T12:58:25Z</time>
      </trkpt>
      <trkpt lat="43.58391" lon="5.51504">
        <ele>358.04</ele>
        <time>2015-10-29T12:58:45Z</time>
      </trkpt>
      <trkpt lat="43.58405" lon="5.51485">
        <ele>357.25</ele>
        <time>2015-10-29T12:59:07Z</time>
      </trkpt>
      <trkpt lat="43.58418" lon="5.5147">
        <ele>356.61</ele>
        <time>2015-10-29T12:59:30Z</time>
      </trkpt>
      <trkpt lat="43.58437" lon="5.5145">
        <ele>355.76</ele>
        <time>2015-10-29T12:59:52Z</time>
      </trkpt>
      <trkpt lat="43.58446" lon="5.51428">
        <ele>354.97</ele>
        <time>2015-10-29T13:00:11Z</time>
      </trkpt>
      <trkpt lat="43.58451" lon="5.51411">
        <ele>354.49</ele>
        <time>2015-10-29T13:00:30Z</time>
      </trkpt>
      <trkpt lat="43.58451" lon="5.51384">
        <ele>354.23</ele>
        <time>2015-10-29T13:00:54Z</time>
      </trkpt>
      <trkpt lat="43.58462" lon="5.51363">
        <ele>353.79</ele>
        <time>2015-10-29T13:01:14Z</time>
      </trkpt>
      <trkpt lat="43.58472" lon="5.51343">
        <ele>353.68</ele>
        <time>2015-10-29T13:01:31Z</time>
      </trkpt>
      <trkpt lat="43.58486" lon="5.51327">
        <ele>353.33</ele>
        <time>2015-10-29T13:01:54Z</time>
      </trkpt>
      <trkpt lat="43.58507" lon="5.51326">
        <ele>352.96</ele>
        <time>2015-10-29T13:02:14Z</time>
      </trkpt>
      <trkpt lat="43.58529" lon="5.5132">
        <ele>352.72</ele>
        <time>2015-10-29T13:02:33Z</time>
      </trkpt>
      <trkpt lat="43.58551" lon="5.51323">
        <ele>352.7</ele>
        <time>2015-10-29T13:02:44Z</time>
      </trkpt>
      <trkpt lat="43.58577" lon="5.51325">
        <ele>353.16</ele>
        <time>2015-10-29T13:03:02Z</time>
      </trkpt>
      <trkpt lat="43.58596" lon="5.51313">
        <ele>352.56</ele>
        <time>2015-10-29T13:03:21Z</time>
      </trkpt>
      <trkpt lat="43.58616" lon="5.5131">
        <ele>351.12</ele>
        <time>2015-10-29T13:03:39Z</time>
      </trkpt>
      <trkpt lat="43.58632" lon="5.51298">
        <ele>349.78</ele>
        <time>2015-10-29T13:04:01Z</time>
      </trkpt>
      <trkpt lat="43.58652" lon="5.51281">
        <ele>348.59</ele>
        <time>2015-10-29T13:04:25Z</time>
      </trkpt>
      <trkpt lat="43.58661" lon="5.51276">
        <ele>348.24</ele>
        <time>2015-10-29T13:04:34Z</time>
      </trkpt>
      <trkpt lat="43.58677" lon="5.51265">
        <ele>347.48</ele>
        <time>2015-10-29T13:04:50Z</time>
      </trkpt>
      <trkpt lat="43.5869" lon="5.51247">
        <ele>346.63</ele>
        <time>2015-10-29T13:05:07Z</time>
      </trkpt>
      <trkpt lat="43.58701" lon="5.51231">
        <ele>345.83</ele>
        <time>2015-10-29T13:05:25Z</time>
      </trkpt>
      <trkpt lat="43.58718" lon="5.51211">
        <ele>345.2</ele>
        <time>2015-10-29T13:05:46Z</time>
      </trkpt>
      <trkpt lat="43.58733" lon="5.51194">
        <ele>344.45</ele>
        <time>2015-10-29T13:06:00Z</time>
      </trkpt>
      <trkpt lat="43.58756" lon="5.51176">
        <ele>343.87</ele>
        <time>2015-10-29T13:06:17Z</time>
      </trkpt>
      <trkpt lat="43.58763" lon="5.51153">
        <ele>343.51</ele>
        <time>2015-10-29T13:06:37Z</time>
      </trkpt>
      <trkpt lat="43.58773" lon="5.51137">
        <ele>343.24</ele>
        <time>2015-10-29T13:06:50Z</time>
      </trkpt>
      <trkpt lat="43.58779" lon="5.51124">
        <ele>342.65</ele>
        <time>2015-10-29T13:07:07Z</time>
      </trkpt>
      <trkpt lat="43.58787" lon="5.51109">
        <ele>342.21</ele>
        <time>2015-10-29T13:07:24Z</time>
      </trkpt>
      <trkpt lat="43.58792" lon="5.51082">
        <ele>341.65</ele>
        <time>2015-10-29T13:07:45Z</time>
      </trkpt>
      <trkpt lat="43.58794" lon="5.51058">
        <ele>341.21</ele>
        <time>2015-10-29T13:08:03Z</time>
      </trkpt>
      <trkpt lat="43.58799" lon="5.51039">
        <ele>340.33</ele>
        <time>2015-10-29T13:08:19Z</time>
      </trkpt>
      <trkpt lat="43.58809" lon="5.51019">
        <ele>339.57</ele>
        <time>2015-10-29T13:08:37Z</time>
      </trkpt>
      <trkpt lat="43.5882" lon="5.51002">
        <ele>338.77</ele>
        <time>2015-10-29T13:08:54Z</time>
      </trkpt>
      <trkpt lat="43.58838" lon="5.50992">
        <ele>337.92</ele>
        <time>2015-10-29T13:09:13Z</time>
      </trkpt>
      <trkpt lat="43.5886" lon="5.50986">
        <ele>337.47</ele>
        <time>2015-10-29T13:09:31Z</time>
      </trkpt>
      <trkpt lat="43.58872" lon="5.5097">
        <ele>336.67</ele>
        <time>2015-10-29T13:09:54Z</time>
      </trkpt>
      <trkpt lat="43.58887" lon="5.50969">
        <ele>336.56</ele>
        <time>2015-10-29T13:10:14Z</time>
      </trkpt>
      <trkpt lat="43.5891" lon="5.50956">
        <ele>336.47</ele>
        <time>2015-10-29T13:10:33Z</time>
      </trkpt>
      <trkpt lat="43.58914" lon="5.50948">
        <ele>336.34</ele>
        <time>2015-10-29T13:10:39Z</time>
      </trkpt>
      <trkpt lat="43.58908" lon="5.50918">
        <ele>335.99</ele>
        <time>2015-10-29T13:11:01Z</time>
      </trkpt>
      <trkpt lat="43.58909" lon="5.50903">
        <ele>335.96</ele>
        <time>2015-10-29T13:11:13Z</time>
      </trkpt>
      <trkpt lat="43.58917" lon="5.50889">
        <ele>335.5</ele>
        <time>2015-10-29T13:11:29Z</time>
      </trkpt>
      <trkpt lat="43.5893" lon="5.50893">
        <ele>336.32</ele>
        <time>2015-10-29T13:11:48Z</time>
      </trkpt>
      <trkpt lat="43.58937" lon="5.5089">
        <ele>336.52</ele>
        <time>2015-10-29T13:12:08Z</time>
      </trkpt>
      <trkpt lat="43.5894" lon="5.50887">
        <ele>335.89</ele>
        <time>2015-10-29T13:12:49Z</time>
      </trkpt>
      <trkpt lat="43.58941" lon="5.50886">
        <ele>334.95</ele>
        <time>2015-10-29T13:13:52Z</time>
      </trkpt>
      <trkpt lat="43.58939" lon="5.50883">
        <ele>334.73</ele>
        <time>2015-10-29T13:15:07Z</time>
      </trkpt>
      <trkpt lat="43.58942" lon="5.50876">
        <ele>334.72</ele>
        <time>2015-10-29T13:15:24Z</time>
      </trkpt>
      <trkpt lat="43.58943" lon="5.50864">
        <ele>335</ele>
        <time>2015-10-29T13:15:41Z</time>
      </trkpt>
      <trkpt lat="43.58944" lon="5.50848">
        <ele>334.37</ele>
        <time>2015-10-29T13:16:00Z</time>
      </trkpt>
      <trkpt lat="43.58946" lon="5.50841">
        <ele>334.47</ele>
        <time>2015-10-29T13:16:06Z</time>
      </trkpt>
      <trkpt lat="43.58953" lon="5.5082">
        <ele>334.32</ele>
        <time>2015-10-29T13:16:27Z</time>
      </trkpt>
      <trkpt lat="43.58962" lon="5.50805">
        <ele>334.23</ele>
        <time>2015-10-29T13:16:46Z</time>
      </trkpt>
      <trkpt lat="43.5897" lon="5.50785">
        <ele>335.23</ele>
        <time>2015-10-29T13:17:05Z</time>
      </trkpt>
      <trkpt lat="43.58983" lon="5.50768">
        <ele>335.55</ele>
        <time>2015-10-29T13:17:25Z</time>
      </trkpt>
      <trkpt lat="43.58997" lon="5.50748">
        <ele>337.01</ele>
        <time>2015-10-29T13:17:46Z</time>
      </trkpt>
      <trkpt lat="43.59004" lon="5.50738">
        <ele>338.03</ele>
        <time>2015-10-29T13:18:05Z</time>
      </trkpt>
      <trkpt lat="43.59007" lon="5.50725">
        <ele>339.37</ele>
        <time>2015-10-29T13:18:23Z</time>
      </trkpt>
      <trkpt lat="43.5901" lon="5.50708">
        <ele>340.19</ele>
        <time>2015-10-29T13:18:42Z</time>
      </trkpt>
      <trkpt lat="43.59015" lon="5.50687">
        <ele>341.44</ele>
        <time>2015-10-29T13:19:02Z</time>
      </trkpt>
      <trkpt lat="43.59023" lon="5.50657">
        <ele>342.76</ele>
        <time>2015-10-29T13:19:26Z</time>
      </trkpt>
      <trkpt lat="43.59036" lon="5.50625">
        <ele>345.01</ele>
        <time>2015-10-29T13:19:51Z</time>
      </trkpt>
      <trkpt lat="43.5905" lon="5.50604">
        <ele>345.91</ele>
        <time>2015-10-29T13:20:06Z</time>
      </trkpt>
      <trkpt lat="43.5906" lon="5.50595">
        <ele>347.41</ele>
        <time>2015-10-29T13:20:27Z</time>
      </trkpt>
      <trkpt lat="43.59078" lon="5.50578">
        <ele>348.82</ele>
        <time>2015-10-29T13:20:50Z</time>
      </trkpt>
      <trkpt lat="43.59084" lon="5.50568">
        <ele>350.07</ele>
        <time>2015-10-29T13:21:09Z</time>
      </trkpt>
      <trkpt lat="43.59085" lon="5.50554">
        <ele>351.16</ele>
        <time>2015-10-29T13:21:31Z</time>
      </trkpt>
      <trkpt lat="43.59085" lon="5.50537">
        <ele>352.29</ele>
        <time>2015-10-29T13:21:52Z</time>
      </trkpt>
      <trkpt lat="43.59099" lon="5.50519">
        <ele>354.46</ele>
        <time>2015-10-29T13:22:14Z</time>
      </trkpt>
      <trkpt lat="43.5911" lon="5.50491">
        <ele>355.91</ele>
        <time>2015-10-29T13:22:34Z</time>
      </trkpt>
      <trkpt lat="43.5911" lon="5.50474">
        <ele>357.29</ele>
        <time>2015-10-29T13:22:54Z</time>
      </trkpt>
      <trkpt lat="43.5912" lon="5.50465">
        <ele>358.41</ele>
        <time>2015-10-29T13:23:15Z</time>
      </trkpt>
      <trkpt lat="43.59136" lon="5.50454">
        <ele>359.43</ele>
        <time>2015-10-29T13:23:33Z</time>
      </trkpt>
      <trkpt lat="43.59145" lon="5.50445">
        <ele>359.89</ele>
        <time>2015-10-29T13:23:47Z</time>
      </trkpt>
      <trkpt lat="43.59155" lon="5.50432">
        <ele>361.4</ele>
        <time>2015-10-29T13:24:07Z</time>
      </trkpt>
      <trkpt lat="43.59163" lon="5.50418">
        <ele>362.39</ele>
        <time>2015-10-29T13:24:22Z</time>
      </trkpt>
      <trkpt lat="43.59174" lon="5.50405">
        <ele>364.29</ele>
        <time>2015-10-29T13:24:46Z</time>
      </trkpt>
      <trkpt lat="43.59193" lon="5.50389">
        <ele>365.78</ele>
        <time>2015-10-29T13:25:07Z</time>
      </trkpt>
      <trkpt lat="43.59218" lon="5.50383">
        <ele>366.13</ele>
        <time>2015-10-29T13:25:28Z</time>
      </trkpt>
      <trkpt lat="43.59234" lon="5.5039">
        <ele>368.1</ele>
        <time>2015-10-29T13:25:48Z</time>
      </trkpt>
      <trkpt lat="43.59254" lon="5.504">
        <ele>370.46</ele>
        <time>2015-10-29T13:26:09Z</time>
      </trkpt>
      <trkpt lat="43.59262" lon="5.50406">
        <ele>370.96</ele>
        <time>2015-10-29T13:26:24Z</time>
      </trkpt>
      <trkpt lat="43.59268" lon="5.5042">
        <ele>371.75</ele>
        <time>2015-10-29T13:26:42Z</time>
      </trkpt>
      <trkpt lat="43.59284" lon="5.50424">
        <ele>374.71</ele>
        <time>2015-10-29T13:27:04Z</time>
      </trkpt>
      <trkpt lat="43.59292" lon="5.50434">
        <ele>376.29</ele>
        <time>2015-10-29T13:27:25Z</time>
      </trkpt>
      <trkpt lat="43.59301" lon="5.50455">
        <ele>377.83</ele>
        <time>2015-10-29T13:27:46Z</time>
      </trkpt>
      <trkpt lat="43.59309" lon="5.50464">
        <ele>380.76</ele>
        <time>2015-10-29T13:28:09Z</time>
      </trkpt>
      <trkpt lat="43.59313" lon="5.50467">
        <ele>382.58</ele>
        <time>2015-10-29T13:28:24Z</time>
      </trkpt>
      <trkpt lat="43.59323" lon="5.50482">
        <ele>384.28</ele>
        <time>2015-10-29T13:28:44Z</time>
      </trkpt>
      <trkpt lat="43.59323" lon="5.50483">
        <ele>384.49</ele>
        <time>2015-10-29T13:29:14Z</time>
      </trkpt>
      <trkpt lat="43.59332" lon="5.50492">
        <ele>384.32</ele>
        <time>2015-10-29T13:29:32Z</time>
      </trkpt>
      <trkpt lat="43.59342" lon="5.50496">
        <ele>384.42</ele>
        <time>2015-10-29T13:29:48Z</time>
      </trkpt>
      <trkpt lat="43.5935" lon="5.50488">
        <ele>385.26</ele>
        <time>2015-10-29T13:30:05Z</time>
      </trkpt>
      <trkpt lat="43.59364" lon="5.50479">
        <ele>387.93</ele>
        <time>2015-10-29T13:30:28Z</time>
      </trkpt>
      <trkpt lat="43.59379" lon="5.50473">
        <ele>390.78</ele>
        <time>2015-10-29T13:30:51Z</time>
      </trkpt>
      <trkpt lat="43.59394" lon="5.5047">
        <ele>392.68</ele>
        <time>2015-10-29T13:31:12Z</time>
      </trkpt>
      <trkpt lat="43.59407" lon="5.50463">
        <ele>395.68</ele>
        <time>2015-10-29T13:31:32Z</time>
      </trkpt>
      <trkpt lat="43.59417" lon="5.50456">
        <ele>397.47</ele>
        <time>2015-10-29T13:31:50Z</time>
      </trkpt>
      <trkpt lat="43.59436" lon="5.50444">
        <ele>399.25</ele>
        <time>2015-10-29T13:32:13Z</time>
      </trkpt>
      <trkpt lat="43.5945" lon="5.50435">
        <ele>400.88</ele>
        <time>2015-10-29T13:32:33Z</time>
      </trkpt>
      <trkpt lat="43.5946" lon="5.50427">
        <ele>402.64</ele>
        <time>2015-10-29T13:32:52Z</time>
      </trkpt>
      <trkpt lat="43.59474" lon="5.50409">
        <ele>404.48</ele>
        <time>2015-10-29T13:33:15Z</time>
      </trkpt>
      <trkpt lat="43.59479" lon="5.50384">
        <ele>404.08</ele>
        <time>2015-10-29T13:33:36Z</time>
      </trkpt>
      <trkpt lat="43.59481" lon="5.50357">
        <ele>406.77</ele>
        <time>2015-10-29T13:33:58Z</time>
      </trkpt>
      <trkpt lat="43.5948" lon="5.5033">
        <ele>408.16</ele>
        <time>2015-10-29T13:34:18Z</time>
      </trkpt>
      <trkpt lat="43.59478" lon="5.50309">
        <ele>408.11</ele>
        <time>2015-10-29T13:34:34Z</time>
      </trkpt>
      <trkpt lat="43.59474" lon="5.50285">
        <ele>407.28</ele>
        <time>2015-10-29T13:34:53Z</time>
      </trkpt>
      <trkpt lat="43.59474" lon="5.50263">
        <ele>405.89</ele>
        <time>2015-10-29T13:35:13Z</time>
      </trkpt>
      <trkpt lat="43.59481" lon="5.50238">
        <ele>403.93</ele>
        <time>2015-10-29T13:35:33Z</time>
      </trkpt>
      <trkpt lat="43.59488" lon="5.50214">
        <ele>403.39</ele>
        <time>2015-10-29T13:35:52Z</time>
      </trkpt>
      <trkpt lat="43.59496" lon="5.50186">
        <ele>400.65</ele>
        <time>2015-10-29T13:36:12Z</time>
      </trkpt>
      <trkpt lat="43.59507" lon="5.5016">
        <ele>400.46</ele>
        <time>2015-10-29T13:36:31Z</time>
      </trkpt>
      <trkpt lat="43.59521" lon="5.50157">
        <ele>401.74</ele>
        <time>2015-10-29T13:36:49Z</time>
      </trkpt>
      <trkpt lat="43.59535" lon="5.50155">
        <ele>403.09</ele>
        <time>2015-10-29T13:37:06Z</time>
      </trkpt>
      <trkpt lat="43.5955" lon="5.50159">
        <ele>404.57</ele>
        <time>2015-10-29T13:37:24Z</time>
      </trkpt>
      <trkpt lat="43.59555" lon="5.5016">
        <ele>405.09</ele>
        <time>2015-10-29T13:37:30Z</time>
      </trkpt>
      <trkpt lat="43.59562" lon="5.50159">
        <ele>405.72</ele>
        <time>2015-10-29T13:37:35Z</time>
      </trkpt>
      <trkpt lat="43.59571" lon="5.50162">
        <ele>406.25</ele>
        <time>2015-10-29T13:37:56Z</time>
      </trkpt>
      <trkpt lat="43.59579" lon="5.50156">
        <ele>406.08</ele>
        <time>2015-10-29T13:38:43Z</time>
      </trkpt>
      <trkpt lat="43.59579" lon="5.50146">
        <ele>405.94</ele>
        <time>2015-10-29T13:39:15Z</time>
      </trkpt>
      <trkpt lat="43.59579" lon="5.50129">
        <ele>407.98</ele>
        <time>2015-10-29T13:39:34Z</time>
      </trkpt>
      <trkpt lat="43.59575" lon="5.50113">
        <ele>410.79</ele>
        <time>2015-10-29T13:39:56Z</time>
      </trkpt>
      <trkpt lat="43.59576" lon="5.501">
        <ele>413.48</ele>
        <time>2015-10-29T13:40:18Z</time>
      </trkpt>
      <trkpt lat="43.59579" lon="5.50083">
        <ele>414.86</ele>
        <time>2015-10-29T13:40:38Z</time>
      </trkpt>
      <trkpt lat="43.59586" lon="5.50064">
        <ele>415.34</ele>
        <time>2015-10-29T13:40:56Z</time>
      </trkpt>
      <trkpt lat="43.59591" lon="5.50043">
        <ele>415.75</ele>
        <time>2015-10-29T13:41:15Z</time>
      </trkpt>
      <trkpt lat="43.59595" lon="5.5001">
        <ele>415.88</ele>
        <time>2015-10-29T13:41:38Z</time>
      </trkpt>
      <trkpt lat="43.59594" lon="5.4999">
        <ele>416.14</ele>
        <time>2015-10-29T13:41:49Z</time>
      </trkpt>
      <trkpt lat="43.5959" lon="5.49974">
        <ele>416.55</ele>
        <time>2015-10-29T13:42:05Z</time>
      </trkpt>
      <trkpt lat="43.59587" lon="5.49955">
        <ele>416.7</ele>
        <time>2015-10-29T13:42:24Z</time>
      </trkpt>
      <trkpt lat="43.59591" lon="5.49946">
        <ele>417.06</ele>
        <time>2015-10-29T13:42:40Z</time>
      </trkpt>
      <trkpt lat="43.59605" lon="5.49922">
        <ele>417.11</ele>
        <time>2015-10-29T13:43:00Z</time>
      </trkpt>
      <trkpt lat="43.59613" lon="5.49908">
        <ele>418.23</ele>
        <time>2015-10-29T13:43:19Z</time>
      </trkpt>
      <trkpt lat="43.59627" lon="5.4989">
        <ele>419.06</ele>
        <time>2015-10-29T13:43:38Z</time>
      </trkpt>
      <trkpt lat="43.59631" lon="5.49885">
        <ele>419.27</ele>
        <time>2015-10-29T13:43:42Z</time>
      </trkpt>
      <trkpt lat="43.59644" lon="5.49864">
        <ele>420.43</ele>
        <time>2015-10-29T13:44:01Z</time>
      </trkpt>
      <trkpt lat="43.59655" lon="5.49842">
        <ele>420.93</ele>
        <time>2015-10-29T13:44:19Z</time>
      </trkpt>
      <trkpt lat="43.59662" lon="5.49831">
        <ele>421.22</ele>
        <time>2015-10-29T13:44:25Z</time>
      </trkpt>
      <trkpt lat="43.59678" lon="5.49796">
        <ele>421.1</ele>
        <time>2015-10-29T13:44:42Z</time>
      </trkpt>
      <trkpt lat="43.59679" lon="5.49783">
        <ele>444.9</ele>
        <time>2015-10-29T13:45:00Z</time>
      </trkpt>
    </trkseg>
  </trk>
</gpx>